M I D A S
Marine Information and Data Acquisition System
Tripno 719 of the Zeeleeuw from 2004-05-18 06:12:13 to 2004-05-18 12:34:22
Back to CruiseResearch ActivitiesStationsMapUnderway DataData graphs

EquipmentUnitsComment
TimeDGPSUTC
LatitudeDGPSDM.mWGS84
LongitudeDGPSDM.mWGS84
TemperatureSBE03/SBE38deg celciusITS90
ConductivitySBE21S/mITS90
SalinitySBE21 Practical Salinity Units
ChlorophylAChelsea fluorimeterg/lCalibrated in Aceton
Missing or incorrect values are displayed as -999
Sea surface data collected by the RV Zeeleeuw from 2004-05-18 06:12:13 to 2004-05-18 12:34:22
                                                                                    Next 1000 lines
Time Latitude Longitude Temperature Conductivity Salinity ChlorophylA
2004-05-18 06:12:19 51°13.667 2°55.856 14.738955 3.233218 25.558101 45.939982
2004-05-18 06:12:24 51°13.669 2°55.846 14.738955 3.233218 25.558101 45.939982
2004-05-18 06:12:29 51°13.671 2°55.836 14.739348 3.261441 25.810309 45.704016
2004-05-18 06:12:34 51°13.673 2°55.827 14.745462 3.28777 26.043812 45.299503
2004-05-18 06:12:39 51°13.674 2°55.818 14.756946 3.28103 25.984776 45.501759
2004-05-18 06:12:44 51°13.675 2°55.809 14.775499 3.270603 25.890485 45.130956
2004-05-18 06:12:49 51°13.676 2°55.8 14.773142 3.275869 25.933569 45.771435
2004-05-18 06:12:54 51°13.677 2°55.791 14.794396 3.300197 26.144615 45.737725
2004-05-18 06:12:58 51°13.678 2°55.785 14.794396 3.300197 26.144615 45.737725
2004-05-18 06:13:03 51°13.679 2°55.777 14.821576 3.307464 26.205259 45.636597
2004-05-18 06:13:08 51°13.679 2°55.77 14.832349 3.307254 26.199867 46.243366
2004-05-18 06:13:14 51°13.679 2°55.762 14.8579 3.287454 26.017897 46.445623
2004-05-18 06:13:18 51°13.68 2°55.758 14.857682 3.276922 25.920737 46.984973
2004-05-18 06:13:23 51°13.68 2°55.752 14.857682 3.276922 25.920737 46.984973
2004-05-18 06:13:28 51°13.68 2°55.748 14.903529 3.251963 25.69511 46.816426
2004-05-18 06:13:33 51°13.68 2°55.745 14.900392 3.206996 25.292982 46.951264
2004-05-18 06:13:38 51°13.68 2°55.743 14.906448 3.174564 24.999962 47.119811
2004-05-18 06:13:43 51°13.681 2°55.742 14.880479 3.13392 24.637275 47.591742
2004-05-18 06:13:48 51°13.682 2°55.742 14.897081 3.10981 24.417782 48.400768
2004-05-18 06:13:53 51°13.682 2°55.743 14.927573 3.043273 23.827816 47.591742
2004-05-18 06:13:58 51°13.684 2°55.744 14.927573 3.043273 23.827816 47.591742
2004-05-18 06:14:04 51°13.686 2°55.746 15.015314 3.00506 23.489091 47.861418
2004-05-18 06:14:08 51°13.687 2°55.748 15.029839 3.004429 23.479584 48.569315
2004-05-18 06:14:12 51°13.689 2°55.749 15.018358 3.028535 23.69011 48.501896
2004-05-18 06:14:17 51°13.691 2°55.751 15.004874 3.031483 23.714623 49.176084
2004-05-18 06:14:23 51°13.695 2°55.753 15.004874 3.031483 23.714623 49.176084
2004-05-18 06:14:28 51°13.698 2°55.754 15.03284 2.962114 23.105163 48.569315
2004-05-18 06:14:33 51°13.702 2°55.755 15.007049 2.827402 21.927701 48.232221
2004-05-18 06:14:38 51°13.706 2°55.755 14.980771 2.766899 21.394493 49.546888
2004-05-18 06:14:43 51°13.711 2°55.755 14.966061 2.750801 21.250754 50.288494
2004-05-18 06:14:48 51°13.715 2°55.753 15.002134 2.76469 21.367109 49.917691
2004-05-18 06:14:54 51°13.721 2°55.75 15.002134 2.76469 21.367109 49.917691
2004-05-18 06:14:58 51°13.725 2°55.747 15.160819 2.749644 21.234824 49.98511
2004-05-18 06:15:04 51°13.731 2°55.742 15.349653 2.784786 21.534669 50.086238
2004-05-18 06:15:08 51°13.735 2°55.739 15.372674 2.832874 21.95208 49.715435
2004-05-18 06:15:13 51°13.74 2°55.734 15.337231 2.868443 22.262439 50.52446
2004-05-18 06:15:18 51°13.745 2°55.729 15.333941 2.8515 22.11139 50.018819
2004-05-18 06:15:22 51°13.75 2°55.725 15.333941 2.8515 22.11139 50.018819
2004-05-18 06:15:28 51°13.757 2°55.718 15.339222 2.652753 20.38832 49.648016
2004-05-18 06:15:33 51°13.763 2°55.712 15.282752 2.395108 18.171608 49.917691
2004-05-18 06:15:38 51°13.768 2°55.706 15.244747 2.249844 16.935797 52.142512
2004-05-18 06:15:44 51°13.775 2°55.699 15.192234 2.218738 16.664132 52.614443
2004-05-18 06:15:48 51°13.78 2°55.694 15.121834 2.204027 16.539313 53.423469
2004-05-18 06:15:53 51°13.786 2°55.687 15.121834 2.204027 16.539313 53.423469
2004-05-18 06:15:58 51°13.791 2°55.68 15.071007 2.190682 16.428026 54.299913
2004-05-18 06:16:04 51°13.798 2°55.673 15.036579 2.219053 16.668301 54.299913
2004-05-18 06:16:08 51°13.803 2°55.668 15.027447 2.30439 17.382479 54.333623
2004-05-18 06:16:13 51°13.808 2°55.661 15.035318 2.388484 18.095918 53.794272
2004-05-18 06:16:18 51°13.813 2°55.656 15.008485 2.511292 19.138388 53.288631
2004-05-18 06:16:22 51°13.817 2°55.651 14.963231 2.626876 20.13272 52.007674
2004-05-18 06:16:28 51°13.824 2°55.645 14.963231 2.626876 20.13272 52.007674
2004-05-18 06:16:32 51°13.828 2°55.641 14.942596 2.699354 20.768213 51.09752
2004-05-18 06:16:38 51°13.834 2°55.636 14.91394 2.764058 21.331513 50.389623
2004-05-18 06:16:42 51°13.838 2°55.632 14.907885 2.769634 21.386609 50.153657
2004-05-18 06:16:48 51°13.844 2°55.628 14.892942 2.803305 21.682267 49.681725
2004-05-18 06:16:53 51°13.849 2°55.624 14.868929 2.877178 22.322527 49.513178
2004-05-18 06:16:57 51°13.853 2°55.622 14.868929 2.877178 22.322527 49.513178
2004-05-18 06:17:03 51°13.859 2°55.618 14.864526 2.938431 22.863946 49.310922
2004-05-18 06:17:09 51°13.864 2°55.615 14.861824 2.986007 23.288711 48.636734
2004-05-18 06:17:13 51°13.868 2°55.613 14.841943 3.02285 23.616105 48.805281
2004-05-18 06:17:18 51°13.873 2°55.61 14.821576 3.059169 23.937492 48.400768
2004-05-18 06:17:24 51°13.878 2°55.607 14.821576 3.059169 23.937492 48.400768
2004-05-18 06:17:28 51°13.882 2°55.605 14.809536 3.099386 24.294725 48.198512
2004-05-18 06:17:33 51°13.886 2°55.602 14.804562 3.120443 24.486844 47.018683
2004-05-18 06:17:38 51°13.891 2°55.6 14.807049 3.135394 24.621599 47.591742
2004-05-18 06:17:43 51°13.896 2°55.597 14.803297 3.160033 24.843918 46.917554
2004-05-18 06:17:45 51°13.898 2°55.596 14.783879 3.191727 25.129434 46.546751
2004-05-18 06:17:53 51°13.905 2°55.592 14.77205 3.22216 25.403102 46.917554
2004-05-18 06:17:58 51°13.91 2°55.589 14.77205 3.22216 25.403102 46.917554
2004-05-18 06:18:02 51°13.914 2°55.587 14.758998 3.232901 25.504077 46.479332
2004-05-18 06:18:08 51°13.92 2°55.584 14.735898 3.2428 25.592868 47.052392
2004-05-18 06:18:13 51°13.926 2°55.581 14.730089 3.237219 25.548622 46.378204
2004-05-18 06:18:18 51°13.931 2°55.578 14.726726 3.25607 25.716587 46.546751
2004-05-18 06:18:22 51°13.935 2°55.576 14.726726 3.25607 25.716587 46.546751
2004-05-18 06:18:29 51°13.943 2°55.571 14.730177 3.279976 25.934427 46.546751
2004-05-18 06:18:33 51°13.947 2°55.569 14.726551 3.317364 26.272231 46.513042
2004-05-18 06:18:38 51°13.953 2°55.566 14.722489 3.347803 26.548306 46.445623
2004-05-18 06:18:44 51°13.959 2°55.562 14.720436 3.364235 26.700288 46.175947
2004-05-18 06:18:48 51°13.964 2°55.56 14.723013 3.374136 26.792978 46.61417
2004-05-18 06:18:53 51°13.969 2°55.557 14.723013 3.374136 26.792978 46.61417
2004-05-18 06:18:58 51°13.975 2°55.554 14.72428 3.371397 26.770979 46.074819
2004-05-18 06:19:04 51°13.982 2°55.55 14.725285 3.373504 26.791569 46.142238
2004-05-18 06:19:08 51°13.986 2°55.547 14.733321 3.380245 26.853436 46.344494
2004-05-18 06:19:12 51°13.991 2°55.545 14.735505 3.39731 27.005125 46.0074
2004-05-18 06:19:17 51°13.996 2°55.541 14.742449 3.398363 27.015965 45.906272
2004-05-18 06:19:23 51°14.003 2°55.536 14.742449 3.398363 27.015965 45.906272
2004-05-18 06:19:28 51°14.009 2°55.53 14.763276 3.407527 27.096121 46.108529
2004-05-18 06:19:33 51°14.014 2°55.525 14.772705 3.40995 27.116406 45.569178
2004-05-18 06:19:38 51°14.02 2°55.52 14.769606 3.406052 27.080516 45.636597
2004-05-18 06:19:44 51°14.027 2°55.513 14.772094 3.398995 27.015777 45.029828
2004-05-18 06:19:45 51°14.028 2°55.512 14.784097 3.391095 26.943137 45.164665
2004-05-18 06:19:53 51°14.037 2°55.503 14.786323 3.365815 26.714167 45.097247
2004-05-18 06:19:58 51°14.044 2°55.497 14.786323 3.365815 26.714167 45.097247
2004-05-18 06:20:02 51°14.049 2°55.492 14.7724 3.334322 26.430544 44.962409
2004-05-18 06:20:08 51°14.058 2°55.484 14.764542 3.32084 26.308273 45.029828
2004-05-18 06:20:13 51°14.066 2°55.477 14.764979 3.321261 26.309423 44.760153
2004-05-18 06:20:18 51°14.075 2°55.469 14.774451 3.304936 26.162877 44.187093
2004-05-18 06:20:22 51°14.082 2°55.462 14.768515 3.292298 26.050738 44.220802
2004-05-18 06:20:28 51°14.095 2°55.453 14.768515 3.292298 26.050738 44.220802
2004-05-18 06:20:33 51°14.107 2°55.444 14.751575 3.308833 26.195988 43.984836
2004-05-18 06:20:38 51°14.118 2°55.434 14.761879 3.327791 26.365637 44.591606
2004-05-18 06:20:44 51°14.133 2°55.421 14.757251 3.342326 26.495128 44.085965
2004-05-18 06:20:48 51°14.143 2°55.412 14.76105 3.325685 26.348192 44.220802
2004-05-18 06:20:53 51°14.155 2°55.401 14.757906 3.337903 26.455307 43.715161
2004-05-18 06:20:58 51°14.168 2°55.389 14.757906 3.337903 26.455307 43.715161
2004-05-18 06:21:04 51°14.183 2°55.374 14.752972 3.369396 26.735291 44.32193
2004-05-18 06:21:08 51°14.193 2°55.362 14.740964 3.378454 26.816938 44.557896
2004-05-18 06:21:13 51°14.205 2°55.348 14.739217 3.388777 26.90818 44.423059
2004-05-18 06:21:18 51°14.217 2°55.334 14.736946 3.410476 27.10007 44.793862
2004-05-18 06:21:23 51°14.229 2°55.318 14.736946 3.410476 27.10007 44.793862
2004-05-18 06:21:28 51°14.241 2°55.303 14.738431 3.40384 27.041684 44.35564
2004-05-18 06:21:34 51°14.256 2°55.284 14.73057 3.404788 27.052639 44.187093
2004-05-18 06:21:38 51°14.265 2°55.271 14.72096 3.417429 27.168083 44.220802
2004-05-18 06:21:43 51°14.276 2°55.253 14.712878 3.425961 27.246907 43.917418
2004-05-18 06:21:45 51°14.28 2°55.246 14.714495 3.428911 27.274472 43.378067
2004-05-18 06:21:53 51°14.297 2°55.216 14.722576 3.430491 27.288921 43.580324
2004-05-18 06:21:58 51°14.307 2°55.196 14.722576 3.430491 27.288921 43.580324
2004-05-18 06:22:02 51°14.314 2°55.18 14.731967 3.451244 27.475041 43.479195
2004-05-18 06:22:08 51°14.326 2°55.154 14.722271 3.46831 27.630426 43.411777
2004-05-18 06:22:13 51°14.335 2°55.132 14.72428 3.478739 27.726808 42.973554
2004-05-18 06:22:18 51°14.345 2°55.11 14.71397 3.489801 27.827771 43.040973
2004-05-18 06:22:22 51°14.352 2°55.091 14.71397 3.489801 27.827771 43.040973
2004-05-18 06:22:29 51°14.364 2°55.058 14.702567 3.484428 27.779215 43.411777
2004-05-18 06:22:33 51°14.371 2°55.039 14.697935 3.466098 27.614639 43.175811
2004-05-18 06:22:37 51°14.378 2°55.019 14.69977 3.460514 27.564287 43.24323
2004-05-18 06:22:42 51°14.386 2°54.994 14.7006 3.461673 27.575048 43.276939
2004-05-18 06:22:48 51°14.397 2°54.964 14.664322 3.465676 27.612522 42.872426
2004-05-18 06:22:53 51°14.405 2°54.938 14.664322 3.465676 27.612522 42.872426
2004-05-18 06:22:58 51°14.412 2°54.912 14.62645 3.475052 27.700676 43.310648
2004-05-18 06:23:08 51°14.421 2°54.855 14.590876 3.491171 27.849043 43.040973
2004-05-18 06:23:16 51°14.424 2°54.807 14.581334 3.5134 28.049484 43.512905
2004-05-18 06:23:20 51°14.424 2°54.783 14.571616 3.550592 28.391583 43.310648
2004-05-18 06:23:24 51°14.423 2°54.759 14.573455 3.608121 28.920941 42.569042
2004-05-18 06:23:30 51°14.421 2°54.723 14.499209 3.62909 29.120003 43.24323
2004-05-18 06:23:35 51°14.419 2°54.693 14.499209 3.62909 29.120003 43.24323
2004-05-18 06:23:40 51°14.417 2°54.662 14.422073 3.670187 29.50761 43.074683
2004-05-18 06:23:45 51°14.414 2°54.632 14.419089 3.682938 29.63072 42.333076
2004-05-18 06:23:49 51°14.411 2°54.607 14.427074 3.686205 29.670305 42.63646
2004-05-18 06:23:55 51°14.407 2°54.571 14.422204 3.682728 29.645556 42.231947
2004-05-18 06:24:00 51°14.402 2°54.54 14.415973 3.708863 29.910829 40.647606
2004-05-18 06:24:05 51°14.398 2°54.51 14.415973 3.708863 29.910829 40.647606
2004-05-18 06:24:10 51°14.394 2°54.48 14.401271 3.73226 30.158804 40.310512
2004-05-18 06:24:15 51°14.39 2°54.449 14.38661 3.753443 30.375244 39.737452
2004-05-18 06:24:20 51°14.386 2°54.419 14.371858 3.746277 30.320842 39.130683
2004-05-18 06:24:25 51°14.382 2°54.389 14.350559 3.746277 30.327956 38.355366
2004-05-18 06:24:30 51°14.379 2°54.358 14.325298 3.752706 30.391766 37.883435
2004-05-18 06:24:33 51°14.377 2°54.34 14.325298 3.752706 30.391766 37.883435
2004-05-18 06:24:40 51°14.373 2°54.297 14.301302 3.753549 30.406494 38.15311
2004-05-18 06:24:45 51°14.369 2°54.267 14.296555 3.764194 30.513134 37.748597
2004-05-18 06:24:50 51°14.364 2°54.237 14.278925 3.764194 30.522692 38.1194
2004-05-18 06:24:56 51°14.356 2°54.203 14.261642 3.776209 30.644856 38.321657
2004-05-18 06:25:01 51°14.348 2°54.174 14.24959 3.785063 30.741036 37.310375
2004-05-18 06:25:04 51°14.342 2°54.157 14.24959 3.785063 30.741036 37.310375
2004-05-18 06:25:10 51°14.331 2°54.124 14.240923 3.789068 30.793518 37.108118
2004-05-18 06:25:14 51°14.323 2°54.103 14.238548 3.782112 30.74572 37.0407
2004-05-18 06:25:21 51°14.309 2°54.066 14.234984 3.780953 30.748514 37.276665
2004-05-18 06:25:24 51°14.303 2°54.05 14.224027 3.78949 30.836043 36.872153
2004-05-18 06:25:30 51°14.29 2°54.017 14.208051 3.795603 30.902918 36.501349
2004-05-18 06:25:34 51°14.282 2°53.996 14.20224 3.791598 30.877569 36.029418
2004-05-18 06:25:40 51°14.27 2°53.963 14.20224 3.791598 30.877569 36.029418
2004-05-18 06:25:45 51°14.26 2°53.935 14.191983 3.790228 30.870012 36.265383
2004-05-18 06:25:48 51°14.255 2°53.919 14.174546 3.796447 30.931833 36.197965
2004-05-18 06:25:54 51°14.243 2°53.885 14.172212 3.788858 30.870954 35.591195
2004-05-18 06:26:01 51°14.23 2°53.846 14.157236 3.791072 30.897094 35.085554
2004-05-18 06:26:05 51°14.223 2°53.824 14.159131 3.798977 30.973649 35.961999
2004-05-18 06:26:10 51°14.213 2°53.796 14.159131 3.798977 30.973649 35.961999
2004-05-18 06:26:15 51°14.203 2°53.768 14.150585 3.788964 30.891966 34.478785
2004-05-18 06:26:20 51°14.193 2°53.741 14.151686 3.794234 30.949518 34.377657
2004-05-18 06:26:25 51°14.183 2°53.713 14.143447 3.768729 30.725449 34.478785
2004-05-18 06:26:30 51°14.173 2°53.686 14.148161 3.769783 30.742273 34.107982
2004-05-18 06:26:36 51°14.161 2°53.653 14.148161 3.769783 30.742273 34.107982
2004-05-18 06:26:40 51°14.152 2°53.631 14.131859 3.781165 30.850398 33.973144
2004-05-18 06:26:45 51°14.142 2°53.604 14.13838 3.792864 30.96209 34.579913
2004-05-18 06:26:50 51°14.131 2°53.577 14.126306 3.790019 30.939298 34.040563
2004-05-18 06:26:56 51°14.118 2°53.544 14.119783 3.790019 30.941738 34.006853
2004-05-18 06:27:00 51°14.11 2°53.522 14.118197 3.774736 30.806025 33.804597
2004-05-18 06:27:05 51°14.1 2°53.493 14.118197 3.774736 30.806025 33.804597
2004-05-18 06:27:10 51°14.091 2°53.465 14.116698 3.800558 31.044828 32.961862
2004-05-18 06:27:15 51°14.082 2°53.436 14.115949 3.775896 30.825059 32.658477
2004-05-18 06:27:20 51°14.074 2°53.406 14.113921 3.792443 30.980862 33.130409
2004-05-18 06:27:25 51°14.067 2°53.376 14.110527 3.79297 30.990543 33.332665
2004-05-18 06:27:28 51°14.063 2°53.358 14.108808 3.781166 30.8851 32.624768
2004-05-18 06:27:36 51°14.051 2°53.31 14.108808 3.781166 30.8851 32.624768
2004-05-18 06:27:39 51°14.047 2°53.292 14.104223 3.788333 30.952059 33.0967
2004-05-18 06:27:44 51°14.04 2°53.262 14.095538 3.778004 30.85881 32.793315
2004-05-18 06:27:49 51°14.033 2°53.232 14.090644 3.773367 30.818507 32.658477
2004-05-18 06:27:54 51°14.026 2°53.202 14.085838 3.786119 30.934996 32.995571
2004-05-18 06:28:00 51°14.016 2°53.167 14.079311 3.789281 30.968016 32.658477
2004-05-18 06:28:05 51°14.006 2°53.138 14.079311 3.789281 30.968016 32.658477
2004-05-18 06:28:10 51°13.996 2°53.11 14.071813 3.796238 31.035558 33.130409
2004-05-18 06:28:15 51°13.986 2°53.082 14.07715 3.788333 30.968564 32.658477
2004-05-18 06:28:20 51°13.976 2°53.054 14.066388 3.785277 30.943826 32.928153
2004-05-18 06:28:26 51°13.964 2°53.02 14.062242 3.783274 30.929282 32.759606
2004-05-18 06:28:29 51°13.958 2°53.003 14.05911 3.771786 30.832143 32.388802
2004-05-18 06:28:34 51°13.948 2°52.975 14.05911 3.771786 30.832143 32.388802
2004-05-18 06:28:40 51°13.936 2°52.94 14.058933 3.792865 31.027555 32.017999
2004-05-18 06:28:45 51°13.928 2°52.911 14.052316 3.769889 30.822203 31.984289
2004-05-18 06:28:48 51°13.923 2°52.893 14.042653 3.79002 31.010851 31.984289
2004-05-18 06:28:56 51°13.909 2°52.845 14.039123 3.790758 31.020633 31.984289
2004-05-18 06:29:00 51°13.903 2°52.821 14.032592 3.792233 31.035908 32.051708
2004-05-18 06:29:05 51°13.894 2°52.792 14.032371 3.79139 31.030685 31.647195
2004-05-18 06:29:10 51°13.886 2°52.762 14.032371 3.79139 31.030685 31.647195
2004-05-18 06:29:16 51°13.876 2°52.726 14.02147 3.790336 31.022316 31.95058
2004-05-18 06:29:21 51°13.867 2°52.697 14.018336 3.779375 30.928038 31.883161
2004-05-18 06:29:25 51°13.859 2°52.673 14.020101 3.792866 31.055176 31.984289
2004-05-18 06:29:30 51°13.85 2°52.644 14.018115 3.794447 31.073882 31.782033
2004-05-18 06:29:36 51°13.838 2°52.61 14.018512 3.79002 31.037853 31.444939
2004-05-18 06:29:40 51°13.83 2°52.587 14.018512 3.79002 31.037853 31.444939
2004-05-18 06:29:45 51°13.82 2°52.557 14.012332 3.789915 31.041193 31.41123
2004-05-18 06:29:48 51°13.815 2°52.54 14.007299 3.793077 31.073696 31.006717
2004-05-18 06:29:56 51°13.799 2°52.493 14.008756 3.787807 31.029357 31.748324
2004-05-18 06:30:00 51°13.792 2°52.47 14.0039 3.786226 31.016792 31.040426
2004-05-18 06:30:05 51°13.783 2°52.44 14.002664 3.777794 30.941191 31.107845
2004-05-18 06:30:10 51°13.774 2°52.41 14.002664 3.777794 30.941191 31.107845
2004-05-18 06:30:16 51°13.764 2°52.374 13.996791 3.790969 31.063094 31.175264
2004-05-18 06:30:21 51°13.755 2°52.344 13.989064 3.78981 31.054371 31.175264
2004-05-18 06:30:25 51°13.748 2°52.321 13.991316 3.779481 30.962072 30.973007
2004-05-18 06:30:30 51°13.737 2°52.292 13.975505 3.783064 30.997185 30.905589
2004-05-18 06:30:36 51°13.725 2°52.258 13.971618 3.789177 31.054141 30.83817
2004-05-18 06:30:41 51°13.714 2°52.23 13.971618 3.789177 31.054141 30.83817
2004-05-18 06:30:45 51°13.705 2°52.207 13.973518 3.796555 31.126351 30.501076
2004-05-18 06:30:48 51°13.698 2°52.19 13.973164 3.793499 31.100937 30.669623
2004-05-18 06:30:56 51°13.68 2°52.146 13.974489 3.780113 30.981948 30.399947
2004-05-18 06:31:00 51°13.671 2°52.124 13.978509 3.784962 31.033534 30.298819
2004-05-18 06:31:05 51°13.66 2°52.095 13.978994 3.79255 31.105845 29.995435
2004-05-18 06:31:10 51°13.649 2°52.067 13.978994 3.79255 31.105845 29.995435
2004-05-18 06:31:16 51°13.636 2°52.033 13.98107 3.792023 31.104736 30.163982
2004-05-18 06:31:21 51°13.626 2°52.005 13.977184 3.78844 31.073268 30.366238
2004-05-18 06:31:25 51°13.617 2°51.981 13.974489 3.790864 31.094772 29.928016
2004-05-18 06:31:30 51°13.607 2°51.953 13.970426 3.780324 30.997383 30.298819
2004-05-18 06:31:34 51°13.599 2°51.93 13.970426 3.780324 30.997383 30.298819
2004-05-18 06:31:41 51°13.585 2°51.889 13.966803 3.796239 31.142596 30.2314
2004-05-18 06:31:45 51°13.576 2°51.866 13.971397 3.790442 31.089692 30.433657
2004-05-18 06:31:50 51°13.566 2°51.838 13.965522 3.791391 31.098348 29.894306
2004-05-18 06:31:56 51°13.553 2°51.804 13.962386 3.792234 31.107893 29.928016
2004-05-18 06:32:01 51°13.542 2°51.775 13.960574 3.783065 31.025455 29.928016
2004-05-18 06:32:05 51°13.533 2°51.753 13.960574 3.783065 31.025455 29.928016
2004-05-18 06:32:10 51°13.522 2°51.725 13.962739 3.792234 31.111595 29.725759
2004-05-18 06:32:14 51°13.514 2°51.702 13.963402 3.792129 31.111867 30.062853
2004-05-18 06:32:20 51°13.501 2°51.668 13.967068 3.796556 31.154748 30.298819
2004-05-18 06:32:25 51°13.49 2°51.64 13.964506 3.794342 31.136393 30.029144
2004-05-18 06:32:30 51°13.479 2°51.611 13.967378 3.795502 31.148832 29.894306
2004-05-18 06:32:36 51°13.467 2°51.577 13.967378 3.795502 31.148832 29.894306
2004-05-18 06:32:40 51°13.458 2°51.554 13.969586 3.790021 31.099411 29.590922
2004-05-18 06:32:45 51°13.448 2°51.525 13.972192 3.791813 31.115151 29.590922
2004-05-18 06:32:48 51°13.441 2°51.508 13.971707 3.782432 31.027069 29.624631
2004-05-18 06:32:56 51°13.425 2°51.462 13.975726 3.787702 31.074546 30.163982
2004-05-18 06:33:00 51°13.416 2°51.44 13.971177 3.789705 31.09344 29.658341
2004-05-18 06:33:05 51°13.405 2°51.411 13.975152 3.795396 31.144163 29.894306
2004-05-18 06:33:10 51°13.394 2°51.383 13.975152 3.795396 31.144163 29.894306
2004-05-18 06:33:16 51°13.381 2°51.349 13.976079 3.784119 31.039379 30.2314
2004-05-18 06:33:21 51°13.369 2°51.321 13.977272 3.795291 31.14073 29.860597
2004-05-18 06:33:25 51°13.361 2°51.299 13.979436 3.793921 31.12637 29.388665
2004-05-18 06:33:30 51°13.349 2°51.271 13.980275 3.796029 31.14623 30.2314
2004-05-18 06:33:34 51°13.34 2°51.248 13.981203 3.787281 31.065769 29.826888
2004-05-18 06:33:41 51°13.325 2°51.208 13.981203 3.787281 31.065769 29.826888
2004-05-18 06:33:45 51°13.317 2°51.186 13.980982 3.794237 31.128022 29.961725
2004-05-18 06:33:50 51°13.306 2°51.157 13.981733 3.794764 31.132215 29.995435
2004-05-18 06:33:54 51°13.298 2°51.134 13.986414 3.79508 31.133866 30.332529
2004-05-18 06:34:01 51°13.283 2°51.094 13.984868 3.798663 31.165341 30.197691
2004-05-18 06:34:05 51°13.275 2°51.071 13.984868 3.798663 31.165341 30.197691
2004-05-18 06:34:10 51°13.264 2°51.042 13.98584 3.794237 31.123702 30.298819
2004-05-18 06:34:14 51°13.255 2°51.02 13.9816 3.792656 31.109274 30.366238
2004-05-18 06:34:20 51°13.242 2°50.986 13.983058 3.793815 31.119854 30.467366
2004-05-18 06:34:25 51°13.231 2°50.958 13.985045 3.795818 31.136279 30.163982
2004-05-18 06:34:30 51°13.22 2°50.93 13.981512 3.79392 31.118965 30.871879
2004-05-18 06:34:36 51°13.206 2°50.896 13.980099 3.794764 31.126043 30.332529
2004-05-18 06:34:41 51°13.195 2°50.868 13.980099 3.794764 31.126043 30.332529
2004-05-18 06:34:45 51°13.185 2°50.846 13.982749 3.784435 31.032418 30.501076
2004-05-18 06:34:48 51°13.179 2°50.829 13.982881 3.79508 31.130162 30.096563
2004-05-18 06:34:56 51°13.161 2°50.784 13.980761 3.793077 31.113121 30.467366
2004-05-18 06:35:00 51°13.152 2°50.761 13.978994 3.801298 31.188159 30.197691
2004-05-18 06:35:05 51°13.141 2°50.732 13.978994 3.801298 31.188159 30.197691
2004-05-18 06:35:10 51°13.131 2°50.703 13.978376 3.800244 31.178537 30.973007
2004-05-18 06:35:16 51°13.118 2°50.669 13.975726 3.800666 31.182385 30.062853
2004-05-18 06:35:21 51°13.107 2°50.64 13.977537 3.802142 31.195238 30.737042
2004-05-18 06:35:25 51°13.098 2°50.616 13.97948 3.802247 31.196818 30.770751
2004-05-18 06:35:30 51°13.088 2°50.587 13.977846 3.801931 31.19455 30.635913
2004-05-18 06:35:34 51°13.079 2°50.564 13.977846 3.801931 31.19455 30.635913
2004-05-18 06:35:40 51°13.065 2°50.53 13.977934 3.800561 31.18266 30.568494
2004-05-18 06:35:50 51°13.043 2°50.472 13.977625 3.797188 31.152489 30.939298
2004-05-18 06:35:55 51°13.032 2°50.442 13.983323 3.801298 31.191251 30.568494
2004-05-18 06:36:00 51°13.021 2°50.413 13.981644 3.801193 31.190907 30.399947
2004-05-18 06:36:05 51°13.011 2°50.383 13.981644 3.801193 31.190907 30.399947
2004-05-18 06:36:10 51°13 2°50.354 13.984603 3.800139 31.181284 31.141554
2004-05-18 06:36:14 51°12.992 2°50.33 13.983544 3.79898 31.1707 30.635913
2004-05-18 06:36:20 51°12.98 2°50.294 13.983058 3.799507 31.174892 31.141554
2004-05-18 06:36:24 51°12.971 2°50.27 13.987518 3.79919 31.170152 30.80446
2004-05-18 06:36:30 51°12.959 2°50.235 13.987518 3.800139 31.178811 30.635913
2004-05-18 06:36:35 51°12.948 2°50.205 13.987518 3.800139 31.178811 30.635913
2004-05-18 06:36:41 51°12.935 2°50.17 13.98743 3.800244 31.177919 30.973007
2004-05-18 06:36:45 51°12.926 2°50.147 13.988446 3.799823 31.17407 30.669623
2004-05-18 06:36:50 51°12.915 2°50.117 13.995334 3.799823 31.172834 30.568494
2004-05-18 06:36:56 51°12.902 2°50.082 13.993745 3.79898 31.16452 30.130272
2004-05-18 06:37:01 51°12.891 2°50.053 13.9971 3.799928 31.17256 30.905589
2004-05-18 06:37:05 51°12.882 2°50.029 13.997763 3.800455 31.176752 30.501076
2004-05-18 06:37:08 51°12.876 2°50.012 13.997763 3.800455 31.176752 30.501076
2004-05-18 06:37:13 51°12.866 2°49.982 13.99476 3.800982 31.179708 30.568494
2004-05-18 06:37:21 51°12.849 2°49.934 13.992729 3.800877 31.178128 30.399947
2004-05-18 06:37:25 51°12.841 2°49.911 13.992067 3.799401 31.16219 30.534785
2004-05-18 06:37:30 51°12.83 2°49.881 13.98955 3.801825 31.183696 30.534785
2004-05-18 06:37:36 51°12.818 2°49.846 13.990212 3.802668 31.190155 30.635913
2004-05-18 06:37:41 51°12.807 2°49.816 13.990212 3.802668 31.190155 30.635913
2004-05-18 06:37:44 51°12.801 2°49.799 13.984648 3.802774 31.191117 31.310101
2004-05-18 06:37:50 51°12.787 2°49.764 13.986282 3.804039 31.203897 30.029144
2004-05-18 06:37:55 51°12.776 2°49.734 13.983632 3.803617 31.201286 30.602204
2004-05-18 06:38:00 51°12.765 2°49.705 13.984824 3.805409 31.217022 30.467366
2004-05-18 06:38:05 51°12.755 2°49.676 13.986326 3.803195 31.199293 30.635913
2004-05-18 06:38:10 51°12.744 2°49.647 13.986326 3.803195 31.199293 30.635913
2004-05-18 06:38:16 51°12.731 2°49.611 13.982616 3.80583 31.226441 30.939298
2004-05-18 06:38:20 51°12.723 2°49.588 13.980629 3.806463 31.232834 30.332529
2004-05-18 06:38:25 51°12.712 2°49.558 13.982749 3.804144 31.21352 31.040426
2004-05-18 06:38:28 51°12.706 2°49.541 13.976168 3.80583 31.228298 31.074136
2004-05-18 06:38:36 51°12.689 2°49.494 13.976168 3.80583 31.228298 31.074136
2004-05-18 06:38:41 51°12.678 2°49.465 13.977404 3.804776 31.218675 30.635913
2004-05-18 06:38:45 51°12.669 2°49.441 13.969056 3.808676 31.254903 30.534785
2004-05-18 06:38:50 51°12.658 2°49.413 13.969807 3.809625 31.264185 30.568494
2004-05-18 06:38:56 51°12.645 2°49.378 13.966494 3.808149 31.25133 30.602204
2004-05-18 06:39:00 51°12.636 2°49.354 13.967864 3.810679 31.276291 30.669623
2004-05-18 06:39:05 51°12.626 2°49.325 13.967864 3.810679 31.276291 30.669623
2004-05-18 06:39:10 51°12.615 2°49.296 13.964727 3.812049 31.289427 31.141554
2004-05-18 06:39:14 51°12.607 2°49.273 13.964285 3.811733 31.289641 30.703332
2004-05-18 06:39:21 51°12.592 2°49.232 13.964595 3.812682 31.30141 30.534785
2004-05-18 06:39:25 51°12.584 2°49.208 13.96243 3.813946 31.315451 30.973007
2004-05-18 06:39:30 51°12.573 2°49.179 13.959558 3.814263 31.31834 30.905589
2004-05-18 06:39:36 51°12.561 2°49.144 13.959558 3.814263 31.31834 30.905589
2004-05-18 06:39:41 51°12.55 2°49.115 13.95567 3.815211 31.327629 31.276392
2004-05-18 06:39:44 51°12.543 2°49.098 13.954036 3.815527 31.332383 31.074136
2004-05-18 06:39:49 51°12.532 2°49.069 13.94891 3.815527 31.332383 30.433657
2004-05-18 06:39:55 51°12.519 2°49.034 13.951296 3.816792 31.345808 30.939298
2004-05-18 06:40:00 51°12.508 2°49.005 13.951738 3.818479 31.363089 30.602204
2004-05-18 06:40:05 51°12.498 2°48.976 13.951561 3.819427 31.373005 30.602204
2004-05-18 06:40:10 51°12.487 2°48.947 13.951561 3.819427 31.373005 30.602204
2004-05-18 06:40:16 51°12.474 2°48.912 13.950147 3.818057 31.362346 30.770751
2004-05-18 06:40:20 51°12.466 2°48.888 13.953152 3.820376 31.38666 30.534785
2004-05-18 06:40:24 51°12.457 2°48.865 13.94891 3.821219 31.396239 30.568494
2004-05-18 06:40:29 51°12.446 2°48.836 13.959028 3.821535 31.399131 30.534785
2004-05-18 06:40:34 51°12.435 2°48.807 13.951296 3.820271 31.386319 30.669623
2004-05-18 06:40:41 51°12.42 2°48.766 13.951296 3.820271 31.386319 30.669623
2004-05-18 06:40:45 51°12.412 2°48.743 13.947585 3.821852 31.401399 30.635913
2004-05-18 06:40:50 51°12.401 2°48.713 13.952136 3.821852 31.400776 30.197691
2004-05-18 06:40:56 51°12.388 2°48.678 13.949352 3.822062 31.40395 30.568494
2004-05-18 06:41:00 51°12.38 2°48.655 13.95081 3.821641 31.398225 30.366238
2004-05-18 06:41:05 51°12.369 2°48.625 13.944491 3.822695 31.407863 30.80446
2004-05-18 06:41:10 51°12.358 2°48.596 13.944491 3.822695 31.407863 30.80446
2004-05-18 06:41:16 51°12.345 2°48.561 13.948778 3.822484 31.407182 30.703332
2004-05-18 06:41:20 51°12.337 2°48.538 13.940337 3.822589 31.408769 30.501076
2004-05-18 06:41:25 51°12.326 2°48.509 13.935697 3.822379 31.407465 31.040426
2004-05-18 06:41:30 51°12.315 2°48.479 13.932559 3.823011 31.413248 30.703332
2004-05-18 06:41:36 51°12.302 2°48.444 13.932559 3.823011 31.413248 30.703332
2004-05-18 06:41:41 51°12.291 2°48.415 13.931985 3.823749 31.421243 30.467366
2004-05-18 06:41:46 51°12.281 2°48.385 13.931012 3.823327 31.419882 30.635913
2004-05-18 06:41:50 51°12.273 2°48.361 13.928228 3.823222 31.421413 30.163982
2004-05-18 06:41:55 51°12.263 2°48.331 13.924824 3.825541 31.445122 30.26511
2004-05-18 06:42:00 51°12.254 2°48.3 13.924382 3.825962 31.450853 30.298819
2004-05-18 06:42:05 51°12.245 2°48.269 13.920581 3.825752 31.450797 30.366238
2004-05-18 06:42:10 51°12.236 2°48.239 13.920581 3.825752 31.450797 30.366238
2004-05-18 06:42:16 51°12.225 2°48.202 13.913198 3.826068 31.454315 30.534785
2004-05-18 06:42:21 51°12.215 2°48.171 13.906654 3.827122 31.46646 30.029144
2004-05-18 06:42:25 51°12.208 2°48.147 13.907318 3.827017 31.46612 30.534785
2004-05-18 06:42:28 51°12.202 2°48.129 13.901702 3.825857 31.458009 30.298819
2004-05-18 06:42:36 51°12.187 2°48.08 13.901702 3.825857 31.458009 30.298819
2004-05-18 06:42:41 51°12.177 2°48.049 13.902719 3.827438 31.475605 30.197691
2004-05-18 06:42:45 51°12.169 2°48.025 13.905328 3.827544 31.479071 30.366238
2004-05-18 06:42:50 51°12.159 2°47.994 13.902277 3.829441 31.50082 30.163982
2004-05-18 06:42:56 51°12.148 2°47.958 13.904621 3.830495 31.513602 30.669623
2004-05-18 06:43:00 51°12.141 2°47.933 13.901393 3.831233 31.523491 30.163982
2004-05-18 06:43:05 51°12.131 2°47.902 13.901393 3.831233 31.523491 30.163982
2004-05-18 06:43:10 51°12.122 2°47.872 13.90126 3.831865 31.531164 30.366238
2004-05-18 06:43:14 51°12.114 2°47.847 13.897457 3.831338 31.526336 30.130272
2004-05-18 06:43:21 51°12.1 2°47.804 13.89644 3.831444 31.527929 30.366238
2004-05-18 06:43:25 51°12.093 2°47.78 13.90409 3.831128 31.524406 29.826888
2004-05-18 06:43:30 51°12.083 2°47.749 13.896042 3.830495 31.51924 29.961725
2004-05-18 06:43:36 51°12.071 2°47.713 13.896042 3.830495 31.51924 29.961725
2004-05-18 06:43:40 51°12.063 2°47.688 13.902542 3.831444 31.529182 30.332529
2004-05-18 06:43:44 51°12.056 2°47.664 13.898121 3.831233 31.527878 30.096563
2004-05-18 06:43:49 51°12.046 2°47.633 13.893787 3.831655 31.532367 30.602204
2004-05-18 06:43:55 51°12.035 2°47.596 13.893787 3.831865 31.534924 29.860597
2004-05-18 06:44:00 51°12.025 2°47.565 13.892902 3.831233 31.529131 30.029144
2004-05-18 06:44:05 51°12.016 2°47.535 13.893212 3.83039 31.521407 29.523503
2004-05-18 06:44:10 51°12.006 2°47.504 13.893212 3.83039 31.521407 29.523503
2004-05-18 06:44:15 51°11.996 2°47.474 13.89047 3.832603 31.542938 30.096563
2004-05-18 06:44:21 51°11.985 2°47.437 13.886888 3.832919 31.547089 29.928016
2004-05-18 06:44:24 51°11.979 2°47.418 13.891089 3.833657 31.554476 30.197691
2004-05-18 06:44:30 51°11.967 2°47.382 13.884146 3.834079 31.560221 29.793178
2004-05-18 06:44:36 51°11.956 2°47.345 13.886224 3.834079 31.560221 30.130272
2004-05-18 06:44:40 51°11.949 2°47.32 13.886224 3.834079 31.560221 30.130272
2004-05-18 06:44:45 51°11.939 2°47.289 13.880917 3.835449 31.574033 30.26511
2004-05-18 06:44:50 51°11.929 2°47.259 13.878174 3.835871 31.57978 29.860597
2004-05-18 06:44:56 51°11.918 2°47.222 13.878572 3.834922 31.571087 29.658341
2004-05-18 06:45:00 51°11.91 2°47.198 13.876007 3.837557 31.595865 29.590922
2004-05-18 06:45:04 51°11.902 2°47.174 13.873441 3.838401 31.605479 29.321247
2004-05-18 06:45:10 51°11.891 2°47.137 13.873441 3.838401 31.605479 29.321247
2004-05-18 06:45:16 51°11.879 2°47.1 13.869017 3.839349 31.61669 29.793178
2004-05-18 06:45:20 51°11.872 2°47.076 13.868 3.839349 31.618576 30.096563
2004-05-18 06:45:25 51°11.862 2°47.045 13.864859 3.840614 31.63206 30.130272
2004-05-18 06:45:30 51°11.853 2°47.014 13.863045 3.841457 31.640421 29.894306
2004-05-18 06:45:36 51°11.841 2°46.977 13.860611 3.841247 31.639747 29.860597
2004-05-18 06:45:39 51°11.835 2°46.959 13.860611 3.841247 31.639747 29.860597
2004-05-18 06:45:45 51°11.823 2°46.923 13.850965 3.842406 31.653528 30.029144
2004-05-18 06:45:50 51°11.813 2°46.893 13.854904 3.844514 31.674123 29.759469
2004-05-18 06:45:56 51°11.802 2°46.856 13.84747 3.84462 31.67698 29.557212
2004-05-18 06:46:00 51°11.794 2°46.831 13.844504 3.846306 31.693712 29.557212
2004-05-18 06:46:05 51°11.785 2°46.8 13.844504 3.846306 31.693712 29.557212
2004-05-18 06:46:09 51°11.777 2°46.776 13.840035 3.847255 31.706201 29.253828
2004-05-18 06:46:15 51°11.766 2°46.739 13.842823 3.848836 31.722602 29.253828
2004-05-18 06:46:21 51°11.755 2°46.701 13.833794 3.849574 31.732531 29.354956
2004-05-18 06:46:25 51°11.748 2°46.677 13.83043 3.850522 31.743766 29.017862
2004-05-18 06:46:30 51°11.738 2°46.646 13.827375 3.851682 31.758202 29.321247
2004-05-18 06:46:34 51°11.731 2°46.622 13.824587 3.853579 31.777519 29.456084
2004-05-18 06:46:41 51°11.717 2°46.578 13.824587 3.853579 31.777519 29.456084
2004-05-18 06:46:45 51°11.709 2°46.554 13.820337 3.855055 31.793601 29.287537
2004-05-18 06:46:50 51°11.7 2°46.524 13.822904 3.855898 31.803245 29.321247
2004-05-18 06:46:55 51°11.69 2°46.493 13.81374 3.857796 31.825741 28.242546
2004-05-18 06:47:00 51°11.68 2°46.462 13.812589 3.859061 31.839898 28.444802
2004-05-18 06:47:05 51°11.671 2°46.431 13.812589 3.859061 31.839898 28.444802
2004-05-18 06:47:10 51°11.663 2°46.4 13.816352 3.860115 31.852121 29.085281
2004-05-18 06:47:14 51°11.656 2°46.374 13.810154 3.86022 31.856898 28.950443
2004-05-18 06:47:21 51°11.645 2°46.33 13.804751 3.862223 31.875938 28.478512
2004-05-18 06:47:24 51°11.641 2°46.311 13.801032 3.862961 31.885261 28.54593
2004-05-18 06:47:29 51°11.633 2°46.279 13.798817 3.862961 31.887803 28.276255
2004-05-18 06:47:33 51°11.627 2°46.254 13.798817 3.862961 31.887803 28.276255
2004-05-18 06:47:40 51°11.616 2°46.209 13.799925 3.86528 31.908485 29.051571
2004-05-18 06:47:45 51°11.608 2°46.177 13.797002 3.865701 31.914269 29.051571
2004-05-18 06:47:50 51°11.6 2°46.145 13.800102 3.866755 31.928415 28.57964
2004-05-18 06:47:56 51°11.59 2°46.108 13.794433 3.868126 31.942927 28.57964
2004-05-18 06:48:01 51°11.581 2°46.076 13.79275 3.870023 31.963563 28.343674
2004-05-18 06:48:05 51°11.574 2°46.051 13.790624 3.869285 31.958688 28.208836
2004-05-18 06:48:10 51°11.566 2°46.02 13.790624 3.869285 31.958688 28.208836
2004-05-18 06:48:15 51°11.557 2°45.989 13.793813 3.871815 31.983235 28.107708
2004-05-18 06:48:20 51°11.549 2°45.958 13.793149 3.870339 31.969659 28.073999
2004-05-18 06:48:24 51°11.542 2°45.932 13.791466 3.872342 31.989359 28.343674
2004-05-18 06:48:28 51°11.535 2°45.907 13.790447 3.871815 31.986424 28.343674
2004-05-18 06:48:36 51°11.522 2°45.857 13.787258 3.874134 32.009038 28.613349
2004-05-18 06:48:41 51°11.514 2°45.825 13.787258 3.874134 32.009038 28.613349
2004-05-18 06:48:45 51°11.507 2°45.8 13.790624 3.873818 32.007405 28.748187
2004-05-18 06:48:48 51°11.502 2°45.781 13.784733 3.874661 32.015804 28.276255
2004-05-18 06:48:54 51°11.492 2°45.744 13.782386 3.87445 32.013864 28.444802
2004-05-18 06:49:00 51°11.482 2°45.706 13.777025 3.875083 32.020323 28.040289
2004-05-18 06:49:05 51°11.474 2°45.675 13.774323 3.874872 32.018383 28.512221
2004-05-18 06:49:10 51°11.465 2°45.643 13.774323 3.874872 32.018383 28.512221
2004-05-18 06:49:15 51°11.457 2°45.612 13.773836 3.876664 32.036153 28.276255
2004-05-18 06:49:21 51°11.447 2°45.574 13.773083 3.87677 32.039041 28.208836
2004-05-18 06:49:25 51°11.44 2°45.549 13.76657 3.878456 32.056484 28.242546
2004-05-18 06:49:30 51°11.432 2°45.518 13.765595 3.878983 32.064535 28.309965
2004-05-18 06:49:36 51°11.421 2°45.48 13.763424 3.879826 32.073579 28.411093
2004-05-18 06:49:40 51°11.415 2°45.455 13.763424 3.879826 32.073579 28.411093
2004-05-18 06:49:45 51°11.406 2°45.424 13.762494 3.879826 32.075499 28.175127
2004-05-18 06:49:50 51°11.398 2°45.393 13.763557 3.881618 32.094563 28.00658
2004-05-18 06:49:54 51°11.391 2°45.367 13.766658 3.882251 32.102951 28.073999
2004-05-18 06:50:00 51°11.382 2°45.33 13.757797 3.884148 32.12171 28.175127
2004-05-18 06:50:05 51°11.373 2°45.298 13.757797 3.884148 32.12171 28.175127
2004-05-18 06:50:10 51°11.365 2°45.267 13.756512 3.885413 32.135928 27.939161
2004-05-18 06:50:15 51°11.357 2°45.236 13.753409 3.88594 32.140784 28.309965
2004-05-18 06:50:21 51°11.346 2°45.198 13.750706 3.886467 32.147565 27.838033
2004-05-18 06:50:26 51°11.338 2°45.167 13.753011 3.886994 32.15178 27.568358
2004-05-18 06:50:30 51°11.331 2°45.141 13.746452 3.886994 32.152422 27.770614
2004-05-18 06:50:34 51°11.325 2°45.116 13.746452 3.886994 32.152422 27.770614
2004-05-18 06:50:40 51°11.315 2°45.079 13.746673 3.889103 32.17506 28.175127
2004-05-18 06:50:45 51°11.307 2°45.047 13.750041 3.887732 32.164358 28.107708
2004-05-18 06:50:50 51°11.298 2°45.016 13.740734 3.889841 32.185716 28.073999
2004-05-18 06:50:55 51°11.29 2°44.984 13.738695 3.890368 32.192503 27.770614
2004-05-18 06:51:00 51°11.282 2°44.953 13.740468 3.890368 32.193789 27.905452
2004-05-18 06:51:05 51°11.274 2°44.922 13.740468 3.890368 32.193789 27.905452
2004-05-18 06:51:10 51°11.265 2°44.89 13.735903 3.891106 32.202521 28.276255
2004-05-18 06:51:15 51°11.257 2°44.859 13.734528 3.890473 32.197334 28.309965
2004-05-18 06:51:20 51°11.249 2°44.827 13.732711 3.891633 32.210597 28.208836
2004-05-18 06:51:25 51°11.24 2°44.796 13.734395 3.89353 32.230668 27.972871
2004-05-18 06:51:30 51°11.232 2°44.765 13.730805 3.894057 32.236173 28.208836
2004-05-18 06:51:36 51°11.222 2°44.727 13.729386 3.894479 32.241994 27.568358
2004-05-18 06:51:37 51°11.22 2°44.721 13.729386 3.894479 32.241994 27.568358
2004-05-18 06:51:45 51°11.207 2°44.67 13.728544 3.894268 32.241338 27.871742
2004-05-18 06:51:50 51°11.199 2°44.639 13.7238 3.896166 32.261418 28.141418
2004-05-18 06:51:54 51°11.192 2°44.614 13.724155 3.895955 32.259473 28.040289
2004-05-18 06:52:01 51°11.181 2°44.57 13.717371 3.895533 32.257518 28.00658
2004-05-18 06:52:04 51°11.176 2°44.551 13.715775 3.897747 32.27923 28.175127
2004-05-18 06:52:09 51°11.168 2°44.519 13.715775 3.897747 32.27923 28.175127
2004-05-18 06:52:15 51°11.158 2°44.481 13.716839 3.898485 32.287329 27.669486
2004-05-18 06:52:21 51°11.148 2°44.443 13.713558 3.899539 32.297701 27.838033
2004-05-18 06:52:24 51°11.143 2°44.424 13.710055 3.900382 32.308711 28.107708
2004-05-18 06:52:29 51°11.135 2°44.393 13.705 3.901858 32.32427 27.703195
2004-05-18 06:52:36 51°11.124 2°44.349 13.705044 3.902174 32.328482 27.568358
2004-05-18 06:52:41 51°11.116 2°44.317 13.705044 3.902174 32.328482 27.568358
2004-05-18 06:52:45 51°11.111 2°44.291 13.70633 3.903861 32.34599 28.073999
2004-05-18 06:52:50 51°11.105 2°44.258 13.706108 3.904177 32.351497 27.096426
2004-05-18 06:52:55 51°11.099 2°44.226 13.698879 3.905337 32.363497 27.635777
2004-05-18 06:53:01 51°11.092 2°44.187 13.692936 3.906285 32.374847 28.040289
2004-05-18 06:53:05 51°11.087 2°44.16 13.692936 3.906285 32.374847 28.040289
2004-05-18 06:53:09 51°11.083 2°44.134 13.69267 3.90755 32.387824 27.838033
2004-05-18 06:53:16 51°11.075 2°44.088 13.69267 3.908183 32.393665 28.175127
2004-05-18 06:53:20 51°11.071 2°44.061 13.692359 3.909026 32.40275 27.669486
2004-05-18 06:53:25 51°11.066 2°44.028 13.693247 3.909764 32.412807 28.073999
2004-05-18 06:53:30 51°11.061 2°43.995 13.686061 3.909659 32.41313 27.871742
2004-05-18 06:53:35 51°11.057 2°43.962 13.687125 3.911978 32.438448 27.804324
2004-05-18 06:53:40 51°11.052 2°43.928 13.687125 3.911978 32.438448 27.804324
2004-05-18 06:53:46 51°11.046 2°43.889 13.67914 3.912716 32.445916 27.804324
2004-05-18 06:53:50 51°11.041 2°43.862 13.675768 3.911872 32.438772 28.107708
2004-05-18 06:53:55 51°11.035 2°43.83 13.676877 3.913875 32.459228 28.00658
2004-05-18 06:54:01 51°11.028 2°43.79 13.677676 3.913981 32.463451 28.141418
2004-05-18 06:54:04 51°11.024 2°43.771 13.677676 3.913981 32.463451 28.141418
2004-05-18 06:54:09 51°11.017 2°43.738 13.676079 3.915035 32.473194 28.276255
2004-05-18 06:54:14 51°11.011 2°43.706 13.675635 3.916195 32.487163 28.377383
2004-05-18 06:54:21 51°11.002 2°43.66 13.678386 3.916405 32.493014 28.242546
2004-05-18 06:54:25 51°10.997 2°43.634 13.67812 3.916405 32.494315 27.602067
2004-05-18 06:54:30 51°10.991 2°43.601 13.677144 3.917249 32.501461 27.770614
2004-05-18 06:54:36 51°10.983 2°43.562 13.677144 3.917249 32.501461 27.770614
2004-05-18 06:54:39 51°10.98 2°43.542 13.672352 3.91746 32.505363 27.568358
2004-05-18 06:54:45 51°10.972 2°43.503 13.669202 3.917776 32.508287 27.838033
2004-05-18 06:54:50 51°10.965 2°43.47 13.665386 3.917354 32.503738 28.141418
2004-05-18 06:54:56 51°10.958 2°43.431 13.663478 3.91767 32.507312 27.568358
2004-05-18 06:55:00 51°10.952 2°43.405 13.662501 3.917143 32.502439 28.141418
2004-05-18 06:55:06 51°10.944 2°43.366 13.661525 3.917987 32.51284 28.242546
2004-05-18 06:55:10 51°10.939 2°43.34 13.661525 3.917987 32.51284 28.242546
2004-05-18 06:55:14 51°10.934 2°43.314 13.66898 3.919357 32.527467 27.736905
2004-05-18 06:55:21 51°10.925 2°43.268 13.662679 3.919884 32.534948 27.332392
2004-05-18 06:55:26 51°10.919 2°43.235 13.663833 3.920411 32.541779 27.43352
2004-05-18 06:55:30 51°10.914 2°43.209 13.660904 3.920201 32.541784 27.804324
2004-05-18 06:55:36 51°10.907 2°43.169 13.656155 3.921466 32.554138 28.309965
2004-05-18 06:55:40 51°10.902 2°43.143 13.656155 3.921466 32.554138 28.309965
2004-05-18 06:55:45 51°10.895 2°43.11 13.651628 3.921782 32.55576 27.905452
2004-05-18 06:55:50 51°10.889 2°43.078 13.652561 3.922203 32.560313 27.972871
2004-05-18 06:55:56 51°10.881 2°43.038 13.651495 3.922941 32.56714 27.568358
2004-05-18 06:56:01 51°10.875 2°43.006 13.654158 3.922941 32.569097 28.040289
2004-05-18 06:56:05 51°10.87 2°42.98 13.653004 3.922836 32.570731 27.804324
2004-05-18 06:56:10 51°10.863 2°42.947 13.653004 3.922836 32.570731 27.804324
2004-05-18 06:56:16 51°10.856 2°42.908 13.647234 3.925155 32.59415 28.377383
2004-05-18 06:56:20 51°10.851 2°42.881 13.648078 3.925788 32.601963 28.512221
2004-05-18 06:56:24 51°10.846 2°42.855 13.643639 3.925788 32.60327 27.972871
2004-05-18 06:56:29 51°10.839 2°42.822 13.643106 3.926315 32.608802 28.141418
2004-05-18 06:56:34 51°10.833 2°42.789 13.643106 3.926315 32.608802 28.141418
2004-05-18 06:56:41 51°10.824 2°42.744 13.647811 3.926526 32.6101 28.242546
2004-05-18 06:56:45 51°10.819 2°42.717 13.641331 3.926842 32.615641 27.500939
2004-05-18 06:56:48 51°10.815 2°42.698 13.636625 3.926842 32.617602 28.276255
2004-05-18 06:56:53 51°10.809 2°42.665 13.639511 3.927896 32.628669 28.377383
2004-05-18 06:57:01 51°10.799 2°42.612 13.630499 3.927896 32.628669 28.276255
2004-05-18 06:57:05 51°10.794 2°42.586 13.625082 3.929161 32.640381 28.141418
2004-05-18 06:57:09 51°10.79 2°42.56 13.625082 3.929161 32.640381 28.141418
2004-05-18 06:57:15 51°10.782 2°42.52 13.617534 3.929267 32.644628 27.905452
2004-05-18 06:57:21 51°10.775 2°42.481 13.616291 3.930004 32.650807 27.905452
2004-05-18 06:57:26 51°10.768 2°42.448 13.60692 3.930005 32.653425 27.534648
2004-05-18 06:57:30 51°10.764 2°42.422 13.605366 3.930848 32.664508 28.107708
2004-05-18 06:57:34 51°10.758 2°42.396 13.59786 3.930848 32.669093 28.276255
2004-05-18 06:57:41 51°10.749 2°42.35 13.59786 3.930848 32.669093 28.276255
2004-05-18 06:57:45 51°10.744 2°42.323 13.598215 3.931375 32.678562 28.309965
2004-05-18 06:57:50 51°10.739 2°42.291 13.595727 3.931375 32.683806 27.871742
2004-05-18 06:57:56 51°10.731 2°42.251 13.594217 3.932113 32.693922 28.309965
2004-05-18 06:58:00 51°10.726 2°42.225 13.591996 3.934116 32.715766 28.343674
2004-05-18 06:58:05 51°10.72 2°42.192 13.591996 3.934116 32.715766 28.343674
2004-05-18 06:58:08 51°10.716 2°42.173 13.579601 3.934116 32.720362 27.871742
2004-05-18 06:58:16 51°10.706 2°42.12 13.576135 3.934432 32.72592 28.141418
2004-05-18 06:58:21 51°10.7 2°42.087 13.576669 3.934749 32.73148 27.972871
2004-05-18 06:58:24 51°10.696 2°42.068 13.573514 3.935908 32.744861 28.040289
2004-05-18 06:58:30 51°10.689 2°42.028 13.564804 3.934116 32.730213 27.703195
2004-05-18 06:58:36 51°10.681 2°41.989 13.560982 3.935803 32.753087 28.54593
2004-05-18 06:58:40 51°10.676 2°41.963 13.560982 3.935803 32.753087 28.54593
2004-05-18 06:58:44 51°10.672 2°41.936 13.557604 3.938122 32.777892 28.377383
2004-05-18 06:58:50 51°10.664 2°41.897 13.556716 3.938122 32.77855 27.770614
2004-05-18 06:58:56 51°10.657 2°41.858 13.553782 3.938755 32.789028 28.175127
2004-05-18 06:58:59 51°10.653 2°41.838 13.553738 3.939704 32.801785 28.276255
2004-05-18 06:59:04 51°10.647 2°41.805 13.545425 3.939177 32.800188 27.905452
2004-05-18 06:59:10 51°10.64 2°41.766 13.545425 3.939177 32.800188 27.905452
2004-05-18 06:59:15 51°10.634 2°41.733 13.542981 3.940336 32.814247 28.040289
2004-05-18 06:59:21 51°10.626 2°41.694 13.534489 3.940969 32.822098 27.972871
2004-05-18 06:59:26 51°10.62 2°41.662 13.533378 3.941496 32.82963 28.175127
2004-05-18 06:59:28 51°10.617 2°41.649 13.527242 3.942023 32.835844 28.073999
2004-05-18 06:59:34 51°10.61 2°41.61 13.532444 3.942761 32.845997 28.00658
2004-05-18 06:59:40 51°10.603 2°41.57 13.532444 3.942761 32.845997 28.00658
2004-05-18 06:59:45 51°10.597 2°41.538 13.529776 3.943077 32.851575 28.208836
2004-05-18 06:59:50 51°10.591 2°41.505 13.520082 3.944132 32.864669 28.208836
2004-05-18 06:59:56 51°10.584 2°41.466 13.520838 3.943288 32.862121 27.871742
2004-05-18 07:00:00 51°10.579 2°41.439 13.510654 3.94508 32.882738 27.972871
2004-05-18 07:00:06 51°10.572 2°41.4 13.507452 3.945186 32.883056 27.838033
2004-05-18 07:00:11 51°10.566 2°41.367 13.507452 3.945186 32.883056 27.838033
2004-05-18 07:00:15 51°10.561 2°41.341 13.506562 3.945291 32.886681 27.939161
2004-05-18 07:00:21 51°10.554 2°41.302 13.501403 3.943815 32.875611 28.107708
2004-05-18 07:00:24 51°10.55 2°41.283 13.505139 3.945397 32.894276 28.478512
2004-05-18 07:00:30 51°10.542 2°41.244 13.499623 3.946556 32.908365 28.613349
2004-05-18 07:00:35 51°10.536 2°41.211 13.493306 3.947189 32.918881 28.815606
2004-05-18 07:00:40 51°10.53 2°41.178 13.493306 3.947189 32.918881 28.815606
2004-05-18 07:00:45 51°10.524 2°41.146 13.492772 3.9474 32.922829 28.276255
2004-05-18 07:00:50 51°10.518 2°41.113 13.486544 3.948981 32.940847 27.871742
2004-05-18 07:00:56 51°10.511 2°41.074 13.485698 3.948138 32.935656 27.939161
2004-05-18 07:01:00 51°10.506 2°41.048 13.48027 3.949825 32.953333 28.208836
2004-05-18 07:01:06 51°10.499 2°41.008 13.479247 3.95109 32.967755 28.377383
2004-05-18 07:01:10 51°10.494 2°40.982 13.479247 3.95109 32.967755 28.377383
2004-05-18 07:01:16 51°10.487 2°40.943 13.470836 3.951617 32.975977 28.175127
2004-05-18 07:01:19 51°10.483 2°40.923 13.473061 3.951406 32.978 28.175127
2004-05-18 07:01:25 51°10.476 2°40.884 13.466786 3.953198 32.996005 27.972871
2004-05-18 07:01:29 51°10.471 2°40.858 13.469768 3.953093 32.997018 28.613349
2004-05-18 07:01:35 51°10.464 2°40.819 13.461089 3.954042 33.010501 28.00658
2004-05-18 07:01:39 51°10.459 2°40.793 13.461089 3.954042 33.010501 28.00658
2004-05-18 07:01:45 51°10.452 2°40.754 13.46514 3.954885 33.023674 28.276255
2004-05-18 07:01:49 51°10.447 2°40.728 13.457262 3.950985 32.990685 28.175127
2004-05-18 07:01:56 51°10.438 2°40.682 13.452365 3.955412 33.032574 28.040289
2004-05-18 07:01:59 51°10.434 2°40.662 13.454413 3.955518 33.034887 28.309965
2004-05-18 07:02:05 51°10.428 2°40.623 13.451653 3.954885 33.032325 28.377383
2004-05-18 07:02:09 51°10.423 2°40.597 13.451653 3.954885 33.032325 28.377383
2004-05-18 07:02:15 51°10.416 2°40.558 13.452098 3.953093 33.016967 27.972871
2004-05-18 07:02:19 51°10.411 2°40.531 13.447513 3.955623 33.042527 28.00658
2004-05-18 07:02:25 51°10.404 2°40.492 13.446845 3.949825 32.99119 28.309965
2004-05-18 07:02:29 51°10.399 2°40.466 13.443729 3.951723 33.010858 28.242546
2004-05-18 07:02:36 51°10.391 2°40.421 13.434869 3.953831 33.031828 27.939161
2004-05-18 07:02:39 51°10.387 2°40.401 13.434869 3.953831 33.031828 27.939161
2004-05-18 07:02:45 51°10.38 2°40.362 13.437629 3.952461 33.019728 28.175127
2004-05-18 07:02:50 51°10.374 2°40.33 13.441146 3.950458 33.002402 28.175127
2004-05-18 07:02:56 51°10.367 2°40.291 13.438742 3.955729 33.052169 28.54593
2004-05-18 07:03:00 51°10.362 2°40.265 13.431663 3.956572 33.064026 28.512221
2004-05-18 07:03:05 51°10.356 2°40.232 13.435536 3.955834 33.061817 28.242546
2004-05-18 07:03:10 51°10.35 2°40.2 13.435536 3.955834 33.061817 28.242546
2004-05-18 07:03:16 51°10.343 2°40.161 13.423202 3.957521 33.07887 28.512221
2004-05-18 07:03:20 51°10.338 2°40.135 13.4224 3.956678 33.069676 28.309965
2004-05-18 07:03:26 51°10.331 2°40.096 13.415051 3.955624 33.062519 28.242546
2004-05-18 07:03:30 51°10.326 2°40.07 13.408815 3.950458 33.017047 28.107708
2004-05-18 07:03:35 51°10.32 2°40.038 13.40494 3.956467 33.075049 27.972871
2004-05-18 07:03:40 51°10.314 2°40.006 13.40494 3.956467 33.075049 27.972871
2004-05-18 07:03:45 51°10.308 2°39.973 13.413047 3.951618 33.03185 28.276255
2004-05-18 07:03:48 51°10.305 2°39.954 13.385337 3.960368 33.118092 28.276255
2004-05-18 07:03:55 51°10.296 2°39.909 13.382619 3.96216 33.138816 28.444802
2004-05-18 07:03:59 51°10.292 2°39.883 13.368046 3.964584 33.165447 28.57964
2004-05-18 07:04:04 51°10.285 2°39.851 13.358819 3.962687 33.15176 28.242546
2004-05-18 07:04:10 51°10.278 2°39.812 13.358819 3.962687 33.15176 28.242546
2004-05-18 07:04:15 51°10.272 2°39.78 13.352979 3.964901 33.176433 28.57964
2004-05-18 07:04:20 51°10.266 2°39.748 13.34861 3.964268 33.176559 28.714477
2004-05-18 07:04:25 51°10.261 2°39.716 13.349769 3.960579 33.148821 28.57964
2004-05-18 07:04:30 51°10.255 2°39.684 13.342234 3.972597 33.271096 28.950443
2004-05-18 07:04:36 51°10.248 2°39.645 13.334832 3.969434 33.248947 29.051571
2004-05-18 07:04:39 51°10.244 2°39.626 13.334832 3.969434 33.248947 29.051571
2004-05-18 07:04:45 51°10.237 2°39.587 13.324664 3.970594 33.266504 29.287537
2004-05-18 07:04:50 51°10.231 2°39.555 13.321096 3.97713 33.332302 29.69205
2004-05-18 07:04:56 51°10.224 2°39.516 13.322657 3.979977 33.363634 29.321247
2004-05-18 07:05:00 51°10.219 2°39.491 13.316948 3.979766 33.365712 29.388665
2004-05-18 07:05:04 51°10.214 2°39.465 13.316948 3.979766 33.365712 29.388665
2004-05-18 07:05:10 51°10.206 2°39.427 13.322256 3.981769 33.390522 29.489794
2004-05-18 07:05:15 51°10.199 2°39.395 13.315253 3.983351 33.411398 29.287537
2004-05-18 07:05:20 51°10.192 2°39.363 13.314628 3.986935 33.448998 29.894306
2004-05-18 07:05:25 51°10.185 2°39.332 13.312219 3.981242 33.397754 29.590922
2004-05-18 07:05:30 51°10.178 2°39.3 13.307982 3.985881 33.443193 30.2314
2004-05-18 07:05:35 51°10.171 2°39.269 13.307982 3.985881 33.443193 30.2314
2004-05-18 07:05:39 51°10.165 2°39.244 13.305662 3.984089 33.427773 29.793178
2004-05-18 07:05:45 51°10.156 2°39.206 13.308338 3.974179 33.336395 29.826888
2004-05-18 07:05:50 51°10.149 2°39.175 13.305349 3.974706 33.344701 29.658341
2004-05-18 07:05:56 51°10.14 2°39.137 13.301646 3.984089 33.435895 29.557212
2004-05-18 07:06:01 51°10.133 2°39.106 13.296159 3.985565 33.451067 29.422375
2004-05-18 07:06:06 51°10.126 2°39.074 13.2925 3.983562 33.434345 29.388665
2004-05-18 07:06:10 51°10.12 2°39.049 13.2925 3.983562 33.434345 29.388665
2004-05-18 07:06:16 51°10.111 2°39.011 13.295355 3.985249 33.450815 29.489794
2004-05-18 07:06:20 51°10.105 2°38.986 13.28362 3.985354 33.453157 29.11899
2004-05-18 07:06:24 51°10.099 2°38.961 13.286074 3.986725 33.469379 29.11899
2004-05-18 07:06:31 51°10.089 2°38.917 13.288618 3.985459 33.460921 29.186409
2004-05-18 07:06:35 51°10.083 2°38.892 13.279023 3.984194 33.451784 29.557212
2004-05-18 07:06:41 51°10.074 2°38.854 13.279023 3.984194 33.451784 29.557212
2004-05-18 07:06:45 51°10.069 2°38.829 13.281656 3.988517 33.493627 29.456084
2004-05-18 07:06:48 51°10.065 2°38.81 13.271703 3.988939 33.500971 29.321247
2004-05-18 07:06:54 51°10.056 2°38.772 13.267507 3.983878 33.456277 29.388665
2004-05-18 07:07:00 51°10.047 2°38.734 13.275274 3.993261 33.545549 29.624631
2004-05-18 07:07:05 51°10.04 2°38.703 13.27331 3.992312 33.539376 29.658341
2004-05-18 07:07:10 51°10.032 2°38.671 13.27331 3.992312 33.539376 29.658341
2004-05-18 07:07:13 51°10.028 2°38.652 13.273667 3.993367 33.551297 29.220118
2004-05-18 07:07:20 51°10.018 2°38.608 13.272462 3.99421 33.563965 29.287537
2004-05-18 07:07:24 51°10.013 2°38.582 13.267061 3.994105 33.564337 28.512221
2004-05-18 07:07:30 51°10.004 2°38.544 13.267105 3.995159 33.575583 28.781896
2004-05-18 07:07:35 51°9.997 2°38.512 13.270498 3.995053 33.573233 28.781896
2004-05-18 07:07:41 51°9.989 2°38.474 13.270498 3.995053 33.573233 28.781896
2004-05-18 07:07:44 51°9.984 2°38.455 13.278844 3.994105 33.564337 29.11899
2004-05-18 07:07:50 51°9.975 2°38.417 13.264204 3.996002 33.582129 29.557212
2004-05-18 07:07:55 51°9.968 2°38.385 13.269828 3.996002 33.58349 29.186409
2004-05-18 07:08:00 51°9.961 2°38.354 13.267284 3.996529 33.590476 29.220118
2004-05-18 07:08:05 51°9.954 2°38.322 13.267284 3.996529 33.590476 29.220118
2004-05-18 07:08:10 51°9.947 2°38.29 13.271569 3.996635 33.591465 29.253828
2004-05-18 07:08:16 51°9.939 2°38.252 13.270141 3.996002 33.584171 29.456084
2004-05-18 07:08:20 51°9.933 2°38.226 13.27206 3.997057 33.595419 29.287537
2004-05-18 07:08:26 51°9.924 2°38.188 13.273087 3.996002 33.586214 28.647059
2004-05-18 07:08:30 51°9.919 2°38.162 13.278576 3.995581 33.581579 28.849315
2004-05-18 07:08:35 51°9.912 2°38.13 13.278576 3.995581 33.581579 28.849315
2004-05-18 07:08:39 51°9.907 2°38.105 13.272373 3.997794 33.601658 28.613349
2004-05-18 07:08:45 51°9.899 2°38.066 13.278353 3.997689 33.601351 28.411093
2004-05-18 07:08:49 51°9.894 2°38.04 13.274203 3.997478 33.598011 28.309965
2004-05-18 07:08:56 51°9.885 2°37.995 13.270855 3.997794 33.600295 28.208836
2004-05-18 07:09:06 51°9.871 2°37.931 13.272462 3.998216 33.602206 29.085281
2004-05-18 07:09:10 51°9.866 2°37.905 13.268712 3.998743 33.607149 28.849315
2004-05-18 07:09:16 51°9.859 2°37.866 13.268712 3.998743 33.607149 28.849315
2004-05-18 07:09:18 51°9.856 2°37.853 13.269516 3.99674 33.588367 28.57964
2004-05-18 07:09:26 51°9.846 2°37.802 13.268936 3.998849 33.610181 28.984153
2004-05-18 07:09:31 51°9.839 2°37.77 13.271882 3.999376 33.615125 28.916734
2004-05-18 07:09:36 51°9.832 2°37.738 13.272283 3.999481 33.617476 29.11899
2004-05-18 07:09:41 51°9.825 2°37.706 13.268087 4.00043 33.627057 28.916734
2004-05-18 07:09:46 51°9.819 2°37.673 13.268087 4.00043 33.627057 28.916734
2004-05-18 07:09:50 51°9.814 2°37.648 13.272685 4.000641 33.629034 28.916734
2004-05-18 07:09:56 51°9.806 2°37.609 13.272462 4.001379 33.635955 29.354956
2004-05-18 07:10:01 51°9.8 2°37.577 13.265722 3.977659 33.413591 28.781896
2004-05-18 07:10:05 51°9.794 2°37.551 13.274917 3.978713 33.423469 28.748187
2004-05-18 07:10:12 51°9.785 2°37.506 13.263132 4.001274 33.635649 28.647059
2004-05-18 07:10:16 51°9.78 2°37.48 13.263132 4.001274 33.635649 28.647059
2004-05-18 07:10:19 51°9.776 2°37.461 13.269516 4.00412 33.661665 28.883024
2004-05-18 07:10:26 51°9.766 2°37.416 13.265588 4.004015 33.660676 28.512221
2004-05-18 07:10:32 51°9.759 2°37.377 13.268043 4.005174 33.674286 28.647059
2004-05-18 07:10:36 51°9.753 2°37.351 13.271123 4.005069 33.672614 28.242546
2004-05-18 07:10:41 51°9.747 2°37.319 13.270766 4.006439 33.686838 28.613349
2004-05-18 07:10:46 51°9.74 2°37.287 13.270766 4.006439 33.686838 28.613349
2004-05-18 07:10:52 51°9.732 2°37.248 13.272373 4.007705 33.698024 28.950443
2004-05-18 07:10:56 51°9.727 2°37.223 13.26648 4.007283 33.695434 28.647059
2004-05-18 07:11:01 51°9.72 2°37.19 13.264873 4.009391 33.71385 28.613349
2004-05-18 07:11:06 51°9.713 2°37.158 13.265141 4.008759 33.706548 28.411093
2004-05-18 07:11:12 51°9.706 2°37.119 13.265141 4.008759 33.706548 28.411093
2004-05-18 07:11:16 51°9.701 2°37.094 13.261525 4.01034 33.721386 28.478512
2004-05-18 07:11:21 51°9.694 2°37.061 13.26282 4.010235 33.719713 28.512221
2004-05-18 07:11:24 51°9.69 2°37.042 13.259338 4.011394 33.732646 28.815606
2004-05-18 07:11:32 51°9.679 2°36.99 13.261347 4.010973 33.728689 28.815606
2004-05-18 07:11:34 51°9.677 2°36.977 13.258936 4.012027 33.73995 29.11899
2004-05-18 07:11:41 51°9.668 2°36.932 13.258936 4.012027 33.73995 29.11899
2004-05-18 07:11:46 51°9.661 2°36.9 13.25907 4.013503 33.755856 29.1527
2004-05-18 07:11:50 51°9.656 2°36.874 13.262999 4.013081 33.753267 28.916734
2004-05-18 07:11:56 51°9.648 2°36.835 13.256704 4.014874 33.770774 29.624631
2004-05-18 07:11:58 51°9.645 2°36.822 13.266704 4.014663 33.76948 29.590922
2004-05-18 07:12:06 51°9.635 2°36.77 13.270498 4.015295 33.776103 29.456084
2004-05-18 07:12:12 51°9.627 2°36.731 13.265365 4.014979 33.772449 29.793178
2004-05-18 07:12:15 51°9.623 2°36.712 13.265365 4.014979 33.772449 29.793178
2004-05-18 07:12:21 51°9.615 2°36.673 13.269471 4.015506 33.778082 29.085281
2004-05-18 07:12:25 51°9.61 2°36.647 13.268891 4.015612 33.779072 29.456084
2004-05-18 07:12:31 51°9.602 2°36.608 13.2684 4.014874 33.770089 29.11899
2004-05-18 07:12:36 51°9.596 2°36.575 13.271658 4.014241 33.762097 29.253828
2004-05-18 07:12:42 51°9.587 2°36.537 13.269293 4.015822 33.776255 29.456084
2004-05-18 07:12:46 51°9.582 2°36.511 13.269293 4.015822 33.776255 29.456084
2004-05-18 07:12:52 51°9.574 2°36.472 13.268891 4.01656 33.782497 29.1527
2004-05-18 07:12:54 51°9.571 2°36.459 13.275809 4.015084 33.767274 29.456084
2004-05-18 07:13:02 51°9.561 2°36.408 13.278041 4.016982 33.785085 29.1527
2004-05-18 07:13:06 51°9.556 2°36.384 13.286297 4.017298 33.788053 28.984153
2004-05-18 07:13:11 51°9.55 2°36.355 13.281834 4.017509 33.790032 29.253828
2004-05-18 07:13:16 51°9.544 2°36.329 13.281834 4.017509 33.790032 29.253828
2004-05-18 07:13:20 51°9.54 2°36.308 13.277907 4.018247 33.795588 29.11899
2004-05-18 07:13:26 51°9.534 2°36.28 13.27938 4.017931 33.790564 29.017862
2004-05-18 07:13:32 51°9.529 2°36.252 13.273399 4.019829 33.807004 28.781896
2004-05-18 07:13:35 51°9.526 2°36.24 13.269605 4.019301 33.797945 28.950443
2004-05-18 07:13:41 51°9.522 2°36.215 13.269069 4.021304 33.815372 28.680768
2004-05-18 07:13:46 51°9.518 2°36.195 13.269069 4.021304 33.815372 28.680768
2004-05-18 07:13:52 51°9.514 2°36.171 13.270275 4.022359 33.82458 28.781896
2004-05-18 07:13:56 51°9.511 2°36.157 13.269069 4.020988 33.812404 28.680768
2004-05-18 07:14:01 51°9.508 2°36.138 13.263981 4.023624 33.839884 28.680768
2004-05-18 07:14:06 51°9.505 2°36.121 13.258088 4.024573 33.851536 28.647059
2004-05-18 07:14:12 51°9.502 2°36.101 13.261436 4.024678 33.853898 28.883024
2004-05-18 07:14:16 51°9.499 2°36.089 13.261436 4.024678 33.853898 28.883024
2004-05-18 07:14:21 51°9.497 2°36.073 13.253445 4.025416 33.862887 28.377383
2004-05-18 07:14:26 51°9.494 2°36.057 13.254427 4.026471 33.873472 28.714477
2004-05-18 07:14:31 51°9.492 2°36.043 13.253936 4.027209 33.882463 28.781896
2004-05-18 07:14:36 51°9.489 2°36.028 13.249426 4.026471 33.878282 28.680768
2004-05-18 07:14:41 51°9.487 2°36.014 13.251346 4.028158 33.896186 28.57964
2004-05-18 07:14:46 51°9.485 2°36 13.251346 4.028158 33.896186 28.57964
2004-05-18 07:14:50 51°9.483 2°35.99 13.250944 4.028368 33.901605 28.680768
2004-05-18 07:14:56 51°9.48 2°35.974 13.248265 4.028368 33.903669 28.714477
2004-05-18 07:15:01 51°9.478 2°35.961 13.248712 4.029212 33.912968 28.613349
2004-05-18 07:15:06 51°9.476 2°35.949 13.251614 4.029107 33.913354 28.950443
2004-05-18 07:15:12 51°9.473 2°35.935 13.251614 4.029107 33.913354 28.950443
2004-05-18 07:15:16 51°9.471 2°35.925 13.244827 4.029212 33.914344 29.1527
2004-05-18 07:15:21 51°9.469 2°35.914 13.248623 4.029634 33.918994 29.354956
2004-05-18 07:15:26 51°9.466 2°35.904 13.245184 4.028369 33.907797 29.287537
2004-05-18 07:15:31 51°9.464 2°35.894 13.244559 4.029528 33.920069 29.422375
2004-05-18 07:15:36 51°9.463 2°35.887 13.247238 4.029634 33.920371 29.590922
2004-05-18 07:15:39 51°9.462 2°35.883 13.246524 4.030161 33.927389 29.658341
2004-05-18 07:15:45 51°9.46 2°35.874 13.246524 4.030161 33.927389 29.658341
2004-05-18 07:15:52 51°9.458 2°35.865 13.244961 4.030688 33.931654 29.557212
2004-05-18 07:15:54 51°9.458 2°35.862 13.24514 4.030266 33.92838 29.354956
2004-05-18 07:16:01 51°9.456 2°35.853 13.241791 4.031215 33.938673 29.69205
2004-05-18 07:16:06 51°9.455 2°35.846 13.244693 4.030055 33.927087 29.388665
2004-05-18 07:16:11 51°9.454 2°35.839 13.243398 4.031321 33.938975 29.725759
2004-05-18 07:16:16 51°9.453 2°35.833 13.243398 4.031321 33.938975 29.725759
2004-05-18 07:16:22 51°9.452 2°35.825 13.242014 4.030583 33.933418 29.489794
2004-05-18 07:16:25 51°9.451 2°35.821 13.239156 4.030899 33.93639 29.624631
2004-05-18 07:16:32 51°9.45 2°35.813 13.238576 4.031426 33.942032 29.287537
2004-05-18 07:16:36 51°9.449 2°35.808 13.236075 4.032059 33.949355 29.287537
2004-05-18 07:16:42 51°9.448 2°35.799 13.23603 4.032691 33.9553 29.354956
2004-05-18 07:16:46 51°9.448 2°35.794 13.23603 4.032691 33.9553 29.354956
2004-05-18 07:16:50 51°9.447 2°35.788 13.238129 4.032586 33.954309 29.590922
2004-05-18 07:16:56 51°9.446 2°35.779 13.237102 4.023941 33.873762 29.186409
2004-05-18 07:17:01 51°9.446 2°35.772 13.236477 4.031321 33.945176 29.69205
2004-05-18 07:17:05 51°9.445 2°35.766 13.234422 4.032691 33.960126 29.422375
2004-05-18 07:17:12 51°9.445 2°35.756 13.234333 4.032797 33.961806 29.624631
2004-05-18 07:17:16 51°9.444 2°35.75 13.234333 4.032797 33.961806 29.624631
2004-05-18 07:17:22 51°9.444 2°35.741 13.231787 4.031426 33.948923 29.759469
2004-05-18 07:17:26 51°9.444 2°35.735 13.233395 4.033429 33.967063 29.590922
2004-05-18 07:17:31 51°9.444 2°35.727 13.232904 4.03364 33.970424 30.163982
2004-05-18 07:17:36 51°9.443 2°35.72 13.232904 4.033746 33.970725 29.961725
2004-05-18 07:17:39 51°9.443 2°35.715 13.232279 4.034062 33.975078 29.961725
2004-05-18 07:17:45 51°9.443 2°35.706 13.232279 4.034062 33.975078 29.961725
2004-05-18 07:17:52 51°9.443 2°35.695 13.232457 4.034378 33.978741 30.332529
2004-05-18 07:17:54 51°9.443 2°35.692 13.233261 4.034167 33.976759 30.197691
2004-05-18 07:18:01 51°9.443 2°35.681 13.234199 4.033535 33.971502 29.725759
2004-05-18 07:18:06 51°9.442 2°35.673 13.234646 4.034273 33.97913 30.163982
2004-05-18 07:18:12 51°9.442 2°35.664 13.231296 4.03364 33.973183 30.163982
2004-05-18 07:18:16 51°9.442 2°35.658 13.231296 4.03364 33.973183 30.163982
2004-05-18 07:18:22 51°9.442 2°35.648 13.229108 4.034905 33.984387 29.759469
2004-05-18 07:18:24 51°9.442 2°35.645 13.230983 4.032797 33.964564 29.995435
2004-05-18 07:18:32 51°9.443 2°35.632 13.231921 4.034905 33.984387 29.456084
2004-05-18 07:18:36 51°9.443 2°35.626 13.234914 4.035222 33.987361 29.557212
2004-05-18 07:18:41 51°9.443 2°35.618 13.230045 4.03364 33.973873 29.725759
2004-05-18 07:18:46 51°9.443 2°35.611 13.230045 4.03364 33.973873 29.725759
2004-05-18 07:18:52 51°9.443 2°35.601 13.231877 4.034695 33.984475 29.725759
2004-05-18 07:18:56 51°9.443 2°35.595 13.230626 4.035643 33.993396 29.624631
2004-05-18 07:19:02 51°9.444 2°35.586 13.230179 4.035643 33.992016 29.489794
2004-05-18 07:19:06 51°9.444 2°35.58 13.2275 4.034484 33.980422 29.826888
2004-05-18 07:19:11 51°9.444 2°35.573 13.230626 4.033219 33.969908 29.489794
2004-05-18 07:19:16 51°9.445 2°35.565 13.230626 4.033219 33.969908 29.489794
2004-05-18 07:19:21 51°9.445 2°35.558 13.230269 4.034484 33.981802 29.725759
2004-05-18 07:19:26 51°9.445 2°35.55 13.230537 4.035854 33.994689 29.557212
2004-05-18 07:19:32 51°9.446 2°35.541 13.230045 4.035327 33.990422 29.590922
2004-05-18 07:19:37 51°9.446 2°35.534 13.226562 4.034167 33.979519 29.590922
2004-05-18 07:19:41 51°9.446 2°35.528 13.22875 4.034589 33.984864 29.590922
2004-05-18 07:19:46 51°9.447 2°35.52 13.22875 4.034589 33.984864 29.590922
2004-05-18 07:19:52 51°9.447 2°35.511 13.226696 4.034062 33.979217 29.759469
2004-05-18 07:19:56 51°9.447 2°35.505 13.22674 4.03364 33.974563 29.928016
2004-05-18 07:20:02 51°9.448 2°35.496 13.226383 4.035327 33.991113 30.096563
2004-05-18 07:20:06 51°9.448 2°35.491 13.226249 4.034167 33.980899 30.2314
2004-05-18 07:20:12 51°9.448 2°35.482 13.222452 4.03364 33.977322 30.096563
2004-05-18 07:20:15 51°9.449 2°35.477 13.222452 4.03364 33.977322 30.096563
2004-05-18 07:20:21 51°9.449 2°35.469 13.22339 4.035116 33.991891 30.366238
2004-05-18 07:20:26 51°9.45 2°35.461 13.221425 4.034695 33.989306 30.2314
2004-05-18 07:20:32 51°9.45 2°35.453 13.220487 4.035327 33.995254 30.197691
2004-05-18 07:20:36 51°9.45 2°35.447 13.219772 4.035116 33.993272 30.332529
2004-05-18 07:20:41 51°9.451 2°35.439 13.21736 4.035433 33.997627 30.501076
2004-05-18 07:20:46 51°9.452 2°35.432 13.21736 4.035433 33.997627 30.501076
2004-05-18 07:20:52 51°9.452 2°35.424 13.220621 4.035433 33.996936 30.130272
2004-05-18 07:20:56 51°9.453 2°35.418 13.219906 4.034589 33.991076 30.197691
2004-05-18 07:21:01 51°9.453 2°35.411 13.217807 4.034273 33.988102 30.130272
2004-05-18 07:21:06 51°9.454 2°35.404 13.219415 4.034695 33.992758 30.366238
2004-05-18 07:21:12 51°9.454 2°35.395 13.216198 4.036382 34.009313 30.096563
2004-05-18 07:21:16 51°9.455 2°35.39 13.216198 4.036382 34.009313 30.096563
2004-05-18 07:21:22 51°9.455 2°35.381 13.212848 4.034168 33.989181 29.860597
2004-05-18 07:21:26 51°9.456 2°35.376 13.216422 4.036065 34.007029 29.759469
2004-05-18 07:21:32 51°9.456 2°35.367 13.216288 4.035854 34.004355 29.860597
2004-05-18 07:21:36 51°9.457 2°35.361 13.214099 4.035327 33.999397 29.725759
2004-05-18 07:21:41 51°9.457 2°35.354 13.213563 4.036276 34.009012 29.826888
2004-05-18 07:21:46 51°9.458 2°35.347 13.213563 4.036276 34.009012 29.826888
2004-05-18 07:21:52 51°9.458 2°35.339 13.214501 4.035854 34.007118 29.759469
2004-05-18 07:21:55 51°9.459 2°35.335 13.213786 4.036909 34.018417 29.523503
2004-05-18 07:22:01 51°9.459 2°35.326 13.210525 4.036909 34.017726 29.826888
2004-05-18 07:22:06 51°9.46 2°35.319 13.211463 4.035116 34.002249 29.422375
2004-05-18 07:22:12 51°9.461 2°35.311 13.209051 4.035433 34.005224 29.388665
2004-05-18 07:22:16 51°9.461 2°35.306 13.209051 4.035433 34.005224 29.388665
2004-05-18 07:22:21 51°9.462 2°35.299 13.206057 4.036065 34.012556 29.489794
2004-05-18 07:22:26 51°9.463 2°35.292 13.207353 4.036487 34.017905 29.456084
2004-05-18 07:22:32 51°9.463 2°35.283 13.205342 4.03596 34.012946 29.658341
2004-05-18 07:22:36 51°9.464 2°35.278 13.209542 4.036909 34.022564 29.287537
2004-05-18 07:22:41 51°9.464 2°35.271 13.209542 4.036909 34.022564 29.287537
2004-05-18 07:22:46 51°9.465 2°35.264 13.206861 3.990416 33.585587 29.557212
2004-05-18 07:22:52 51°9.465 2°35.256 13.205253 3.969226 33.387385 29.422375
2004-05-18 07:22:56 51°9.466 2°35.25 13.202483 3.96522 33.351838 29.590922
2004-05-18 07:23:01 51°9.467 2°35.243 13.206995 3.973126 33.42534 29.590922
2004-05-18 07:23:06 51°9.467 2°35.236 13.201455 3.975129 33.444816 29.422375
2004-05-18 07:23:12 51°9.468 2°35.228 13.201455 3.975129 33.444816 29.422375
2004-05-18 07:23:15 51°9.468 2°35.223 13.203198 3.929167 33.014559 29.725759
2004-05-18 07:23:22 51°9.469 2°35.214 13.205744 3.974391 33.439249 29.354956
2004-05-18 07:23:26 51°9.469 2°35.208 13.201768 3.971756 33.415874 29.354956
2004-05-18 07:23:32 51°9.47 2°35.2 13.202483 3.983669 33.52701 29.220118
2004-05-18 07:23:37 51°9.47 2°35.193 13.204806 3.996319 33.647863 29.422375
2004-05-18 07:23:41 51°9.471 2°35.187 13.207308 3.956681 33.275805 29.422375
2004-05-18 07:23:46 51°9.471 2°35.181 13.207308 3.956681 33.275805 29.422375
2004-05-18 07:23:52 51°9.472 2°35.172 13.207576 3.985039 33.54124 29.253828
2004-05-18 07:23:56 51°9.472 2°35.167 13.201902 3.92748 33.002112 29.321247
2004-05-18 07:24:02 51°9.473 2°35.159 13.205119 3.976289 33.459777 29.456084
2004-05-18 07:24:06 51°9.474 2°35.153 13.205476 3.972388 33.421131 29.456084
2004-05-18 07:24:12 51°9.474 2°35.145 13.20007 3.927269 32.998126 29.557212
2004-05-18 07:24:16 51°9.475 2°35.139 13.20007 3.927269 32.998126 29.557212
2004-05-18 07:24:21 51°9.475 2°35.132 13.201455 3.926953 32.995164 29.186409
2004-05-18 07:24:26 51°9.476 2°35.125 13.20074 3.989151 33.58053 29.321247
2004-05-18 07:24:32 51°9.477 2°35.117 13.201098 3.991048 33.596986 29.220118
2004-05-18 07:24:35 51°9.477 2°35.112 13.203287 3.92632 32.99058 29.523503
2004-05-18 07:24:42 51°9.478 2°35.103 13.203287 3.928113 33.008707 29.590922
2004-05-18 07:24:46 51°9.478 2°35.097 13.203287 3.928113 33.008707 29.590922
2004-05-18 07:24:52 51°9.479 2°35.089 13.200651 3.980084 33.496763 29.489794
2004-05-18 07:24:56 51°9.48 2°35.083 13.202215 3.972388 33.424526 29.793178
2004-05-18 07:25:01 51°9.48 2°35.076 13.203153 3.971018 33.411664 29.557212
2004-05-18 07:25:06 51°9.481 2°35.07 13.204895 3.992313 33.611599 29.456084
2004-05-18 07:25:12 51°9.482 2°35.061 13.207308 3.927269 33.000137 29.624631
2004-05-18 07:25:16 51°9.482 2°35.055 13.207308 3.927269 33.000137 29.624631
2004-05-18 07:25:22 51°9.483 2°35.047 13.20561 3.985672 33.549224 29.624631
2004-05-18 07:25:26 51°9.484 2°35.042 13.206281 3.994949 33.635672 29.422375
2004-05-18 07:25:32 51°9.485 2°35.034 13.204895 3.922842 32.959338 29.523503
2004-05-18 07:25:35 51°9.485 2°35.029 13.207085 3.921471 32.945835 29.624631
2004-05-18 07:25:42 51°9.486 2°35.02 13.206995 3.981138 33.504618 29.1527
2004-05-18 07:25:46 51°9.487 2°35.014 13.206995 3.981138 33.504618 29.1527
2004-05-18 07:25:52 51°9.488 2°35.006 13.207666 3.927058 32.996822 29.321247
2004-05-18 07:25:57 51°9.489 2°34.999 13.205387 3.994843 33.631949 29.253828
2004-05-18 07:26:02 51°9.489 2°34.993 13.210346 3.966485 33.365738 29.388665
2004-05-18 07:26:06 51°9.49 2°34.987 13.203019 3.9376 33.094239 29.253828
2004-05-18 07:26:10 51°9.491 2°34.982 13.203019 3.9376 33.094239 29.253828
2004-05-18 07:26:16 51°9.492 2°34.974 13.208336 3.933383 33.054059 29.1527
2004-05-18 07:26:22 51°9.493 2°34.966 13.207085 3.966485 33.364383 28.916734
2004-05-18 07:26:26 51°9.494 2°34.961 13.207889 3.922209 32.949399 28.54593
2004-05-18 07:26:32 51°9.495 2°34.953 13.209051 3.952569 33.2332 28.815606
2004-05-18 07:26:37 51°9.496 2°34.946 13.206638 3.977976 33.473569 28.54593
2004-05-18 07:26:41 51°9.497 2°34.941 13.208202 3.971861 33.414148 28.613349
2004-05-18 07:26:46 51°9.498 2°34.935 13.208202 3.971861 33.414148 28.613349
2004-05-18 07:26:52 51°9.499 2°34.927 13.209721 3.965747 33.356783 28.343674
2004-05-18 07:26:57 51°9.5 2°34.921 13.210167 3.920944 32.936216 28.377383
2004-05-18 07:27:00 51°9.501 2°34.917 13.208827 3.988202 33.567527 28.309965
2004-05-18 07:27:06 51°9.502 2°34.91 13.212893 3.98662 33.55268 28.141418
2004-05-18 07:27:12 51°9.503 2°34.902 13.211686 3.989572 33.579714 27.939161
2004-05-18 07:27:16 51°9.504 2°34.898 13.211686 3.989572 33.579714 27.939161
2004-05-18 07:27:21 51°9.505 2°34.892 13.210212 3.992419 33.605761 28.00658
2004-05-18 07:27:25 51°9.506 2°34.887 13.211374 3.968277 33.379162 28.242546
2004-05-18 07:27:32 51°9.508 2°34.878 13.209721 3.964587 33.34455 27.871742
2004-05-18 07:27:36 51°9.509 2°34.874 13.209497 3.993157 33.612691 27.939161
2004-05-18 07:27:42 51°9.51 2°34.866 13.21057 3.980927 33.497195 27.736905
2004-05-18 07:27:46 51°9.511 2°34.862 13.21057 3.980927 33.497195 27.736905
2004-05-18 07:27:52 51°9.512 2°34.854 13.214144 3.979241 33.481363 27.939161
2004-05-18 07:27:56 51°9.513 2°34.85 13.211731 3.974918 33.440799 27.770614
2004-05-18 07:28:02 51°9.515 2°34.843 13.213116 3.952569 33.231175 27.939161
2004-05-18 07:28:06 51°9.516 2°34.838 13.212759 3.945822 33.167932 28.00658
2004-05-18 07:28:12 51°9.518 2°34.832 13.213473 3.944136 33.152797 27.972871
2004-05-18 07:28:16 51°9.519 2°34.827 13.213473 3.944136 33.152797 27.972871
2004-05-18 07:28:21 51°9.52 2°34.821 13.21182 3.977976 33.46881 27.669486
2004-05-18 07:28:24 51°9.521 2°34.818 13.215171 3.920206 32.928639 27.669486
2004-05-18 07:28:32 51°9.523 2°34.809 13.213429 3.918941 32.915458 27.602067
2004-05-18 07:28:34 51°9.523 2°34.807 13.214724 3.956891 33.269673 27.534648
2004-05-18 07:28:41 51°9.525 2°34.8 13.21526 3.979873 33.484579 27.602067
2004-05-18 07:28:46 51°9.526 2°34.794 13.21526 3.979873 33.484579 27.602067
2004-05-18 07:28:52 51°9.528 2°34.788 13.216243 3.972915 33.419968 27.602067
2004-05-18 07:28:56 51°9.529 2°34.784 13.221291 3.987253 33.55521 27.703195
2004-05-18 07:28:58 51°9.53 2°34.782 13.218075 3.978186 33.469429 27.500939
2004-05-18 07:29:06 51°9.532 2°34.774 13.221827 3.95394 33.241323 27.871742
2004-05-18 07:29:11 51°9.534 2°34.769 13.219549 3.967644 33.368484 27.871742
2004-05-18 07:29:16 51°9.535 2°34.764 13.219549 3.967644 33.368484 27.871742
2004-05-18 07:29:21 51°9.537 2°34.759 13.230179 3.928218 32.998301 27.804324
2004-05-18 07:29:26 51°9.538 2°34.755 13.24581 3.976289 33.448225 27.669486
2004-05-18 07:29:32 51°9.54 2°34.75 13.245363 3.953307 33.232019 27.669486
2004-05-18 07:29:35 51°9.541 2°34.747 13.244113 3.983141 33.509808 27.703195
2004-05-18 07:29:42 51°9.543 2°34.742 13.232502 3.95278 33.221008 27.838033
2004-05-18 07:29:46 51°9.545 2°34.739 13.232502 3.95278 33.221008 27.838033
2004-05-18 07:29:52 51°9.547 2°34.734 13.236745 3.918836 32.897105 27.972871
2004-05-18 07:29:56 51°9.548 2°34.731 13.238218 3.949512 33.17624 27.905452
2004-05-18 07:30:01 51°9.55 2°34.728 13.231564 3.961108 33.280829 27.804324
2004-05-18 07:30:06 51°9.552 2°34.725 13.231921 3.971334 33.375309 27.838033
2004-05-18 07:30:12 51°9.554 2°34.721 13.230894 3.987358 33.528281 27.500939
2004-05-18 07:30:16 51°9.555 2°34.719 13.230894 3.987358 33.528281 27.500939
2004-05-18 07:30:22 51°9.557 2°34.715 13.232457 3.918625 32.886457 27.534648
2004-05-18 07:30:26 51°9.558 2°34.713 13.22741 3.918625 32.88579 27.972871
2004-05-18 07:30:32 51°9.561 2°34.71 13.22875 3.994527 33.598946 27.669486
2004-05-18 07:30:36 51°9.562 2°34.707 13.232011 3.972388 33.391965 27.939161
2004-05-18 07:30:41 51°9.564 2°34.705 13.232011 3.972388 33.391965 27.939161
2004-05-18 07:30:46 51°9.565 2°34.702 13.239513 3.915884 32.862154 27.635777
2004-05-18 07:30:52 51°9.567 2°34.699 13.229108 3.970807 33.376463 27.703195
2004-05-18 07:30:55 51°9.568 2°34.698 13.236477 3.989572 33.555858 28.040289
2004-05-18 07:31:02 51°9.571 2°34.695 13.235807 3.991048 33.570389 27.534648
2004-05-18 07:31:06 51°9.572 2°34.693 13.242148 3.93275 33.023321 27.838033
2004-05-18 07:31:12 51°9.574 2°34.69 13.256927 3.968487 33.356751 27.804324
2004-05-18 07:31:16 51°9.576 2°34.689 13.256927 3.968487 33.356751 27.804324
2004-05-18 07:31:21 51°9.578 2°34.687 13.251034 3.977659 33.442748 27.770614
2004-05-18 07:31:26 51°9.579 2°34.685 13.25907 3.978608 33.450968 27.635777
2004-05-18 07:31:31 51°9.581 2°34.683 13.254382 3.916622 32.867722 27.770614
2004-05-18 07:31:36 51°9.583 2°34.681 13.255498 3.972809 33.389143 27.804324
2004-05-18 07:31:42 51°9.585 2°34.679 13.262016 3.961846 33.283017 27.972871
2004-05-18 07:31:46 51°9.587 2°34.677 13.262016 3.961846 33.283017 27.972871
2004-05-18 07:31:52 51°9.589 2°34.676 13.261347 3.97534 33.407439 28.00658
2004-05-18 07:31:56 51°9.591 2°34.674 13.254382 3.971123 33.364533 27.602067
2004-05-18 07:32:01 51°9.592 2°34.673 13.259338 3.968065 33.333182 27.804324
2004-05-18 07:32:04 51°9.593 2°34.672 13.2559 3.936967 33.040003 27.602067
2004-05-18 07:32:12 51°9.596 2°34.67 13.249382 3.981559 33.455569 27.770614
2004-05-18 07:32:16 51°9.597 2°34.669 13.249382 3.981559 33.455569 27.770614
2004-05-18 07:32:21 51°9.599 2°34.667 13.244961 3.963849 33.290978 27.602067
2004-05-18 07:32:26 51°9.6 2°34.666 13.245944 3.972598 33.374302 27.46723
2004-05-18 07:32:30 51°9.602 2°34.665 13.251927 3.923157 32.912171 27.399811
2004-05-18 07:32:36 51°9.603 2°34.664 13.263043 3.923368 32.91481 27.332392
2004-05-18 07:32:38 51°9.604 2°34.663 13.25273 3.939286 33.065725 27.366101
2004-05-18 07:32:45 51°9.606 2°34.661 13.25273 3.939286 33.065725 27.366101
2004-05-18 07:32:52 51°9.608 2°34.66 13.250141 3.922736 32.911564 27.231264
2004-05-18 07:32:56 51°9.609 2°34.659 13.250453 3.983773 33.48311 27.197554
2004-05-18 07:33:01 51°9.61 2°34.658 13.244604 3.946349 33.133848 27.062717
2004-05-18 07:33:06 51°9.611 2°34.657 13.246971 4.003593 33.668327 26.961589
2004-05-18 07:33:12 51°9.613 2°34.656 13.25081 3.991047 33.54928 26.927879
2004-05-18 07:33:15 51°9.613 2°34.655 13.25081 3.991047 33.54928 26.927879
2004-05-18 07:33:22 51°9.615 2°34.653 13.245184 4.001063 33.644587 27.029007
2004-05-18 07:33:26 51°9.615 2°34.653 13.250364 3.966906 33.324345 27.197554
2004-05-18 07:33:32 51°9.617 2°34.652 13.245765 3.970806 33.362246 27.197554
2004-05-18 07:33:36 51°9.617 2°34.651 13.248176 3.984722 33.492685 27.062717
2004-05-18 07:33:41 51°9.618 2°34.65 13.24898 3.994421 33.583644 27.231264
2004-05-18 07:33:46 51°9.619 2°34.649 13.24898 3.994421 33.583644 27.231264
2004-05-18 07:33:51 51°9.62 2°34.648 13.250498 4.003488 33.668704 26.89417
2004-05-18 07:33:56 51°9.621 2°34.647 13.242505 3.987569 33.519376 26.995298
2004-05-18 07:34:02 51°9.623 2°34.646 13.236521 4.000325 33.63971 26.89417
2004-05-18 07:34:04 51°9.623 2°34.646 13.229331 3.923263 32.918496 26.995298
2004-05-18 07:34:12 51°9.626 2°34.646 13.229331 3.923263 32.918496 26.995298
2004-05-18 07:34:14 51°9.627 2°34.646 13.234467 3.972809 33.383725 26.995298
2004-05-18 07:34:22 51°9.632 2°34.648 13.243666 3.948457 33.154259 27.399811
2004-05-18 07:34:26 51°9.636 2°34.65 13.244559 3.950039 33.171082 27.130136
2004-05-18 07:34:32 51°9.642 2°34.654 13.254516 3.953939 33.209629 27.366101
2004-05-18 07:34:36 51°9.647 2°34.657 13.265722 4.049244 34.108842 27.500939
2004-05-18 07:34:41 51°9.654 2°34.661 13.270855 4.049771 34.115877 27.500939
2004-05-18 07:34:45 51°9.661 2°34.666 13.270855 4.049771 34.115877 27.500939
2004-05-18 07:34:51 51°9.673 2°34.674 13.277773 4.049349 34.109142 27.703195
2004-05-18 07:34:56 51°9.684 2°34.683 13.264159 4.049244 34.103997 27.43352
2004-05-18 07:35:01 51°9.696 2°34.692 13.246747 4.049244 34.099845 27.534648
2004-05-18 07:35:06 51°9.709 2°34.702 13.248712 4.04956 34.093825 27.534648
2004-05-18 07:35:12 51°9.726 2°34.716 13.21057 4.049771 34.091657 26.995298
2004-05-18 07:35:21 51°9.751 2°34.738 13.188988 4.049981 34.088799 26.86046
2004-05-18 07:35:28 51°9.772 2°34.756 13.17464 4.050403 34.093453 26.590785
2004-05-18 07:35:32 51°9.784 2°34.766 13.162749 4.051247 34.108989 26.759332
2004-05-18 07:35:37 51°9.799 2°34.779 13.154433 4.051985 34.121464 26.388529
2004-05-18 07:35:42 51°9.814 2°34.792 13.149067 4.05325 34.147216 26.388529
2004-05-18 07:35:48 51°9.832 2°34.807 13.160827 4.053778 34.172291 26.557076
2004-05-18 07:35:52 51°9.845 2°34.817 13.160827 4.053778 34.172291 26.557076